Observation data for Fort McKavett on 11/07/2019      Previous  Date       Current Mesonet Observations  Soil Data  Daily Summary Page  Observations in Plain Language
KMC1 070600Z 13005KT 20/17 A301 RMK A01 T01950167  RH  084%=      5-min Rain = 0
KMC1 070601Z 13004KT 20/17 A301 RMK A01 T01950167  RH  084%=      5-min Rain = 0
KMC1 070602Z 14004KT 20/17 A301 RMK A01 T01950167  RH  084%=      5-min Rain = 0
KMC1 070603Z 12004KT 20/17 A301 RMK A01 T01950167  RH  084%=      5-min Rain = 0
KMC1 070604Z 12007KT 20/17 A301 RMK A01 T01950167  RH  084%=      5-min Rain = 0
KMC1 070605Z 13005KT 20/17 A301 RMK A01 T01950167  RH  084%=      5-min Rain = 0
KMC1 070606Z 13005KT 20/17 A301 RMK A01 T01950167  RH  084%=      5-min Rain = 0
KMC1 070607Z 13005KT 20/17 A301 RMK A01 T01950167  RH  084%=      5-min Rain = 0
KMC1 070608Z 13005KT 20/17 A301 RMK A01 T01950167  RH  084%=      5-min Rain = 0
KMC1 070609Z 13006KT 20/17 A301 RMK A01 T01950167  RH  084%=      5-min Rain = 0
KMC1 070610Z 13006KT 19/17 A301 RMK A01 T01940167  RH  084%=      5-min Rain = 0
KMC1 070611Z 13005KT 20/17 A301 RMK A01 T01950167  RH  084%=      5-min Rain = 0
KMC1 070612Z 12006KT 19/17 A301 RMK A01 T01940167  RH  084%=      5-min Rain = 0
KMC1 070613Z 13007KT 19/17 A301 RMK A01 T01940166  RH  084%=      5-min Rain = 0
KMC1 070614Z 13006KT 19/17 A3011 RMK A01 T01940166  RH  084%=      5-min Rain = 0
KMC1 070615Z 13006KT 19/17 A3011 RMK A01 T01940166  RH  084%=      5-min Rain = 0
KMC1 070616Z 13007KT 19/17 A3011 RMK A01 T01940166  RH  083%=      5-min Rain = 0
KMC1 070617Z 13005KT 20/17 A3011 RMK A01 T01950166  RH  083%=      5-min Rain = 0
KMC1 070618Z 12003KT 20/17 A3011 RMK A01 T01950166  RH  083%=      5-min Rain = 0
KMC1 070619Z 13004KT 20/17 A3011 RMK A01 T01950166  RH  083%=      5-min Rain = 0
KMC1 070620Z 12005KT 20/17 A3011 RMK A01 T01950166  RH  083%=      5-min Rain = 0
KMC1 070621Z 13004KT 20/17 A3011 RMK A01 T01950166  RH  083%=      5-min Rain = 0
KMC1 070622Z 14005KT 20/17 A3011 RMK A01 T01950166  RH  083%=      5-min Rain = 0
KMC1 070623Z 13003KT 20/17 A3011 RMK A01 T01950166  RH  083%=      5-min Rain = 0
KMC1 070624Z 13004KT 20/17 A3011 RMK A01 T01950166  RH  083%=      5-min Rain = 0
KMC1 070625Z 12003KT 20/17 A3011 RMK A01 T01950166  RH  083%=      5-min Rain = 0
KMC1 070626Z 12003KT 20/17 A3011 RMK A01 T01950166  RH  084%=      5-min Rain = 0
KMC1 070627Z 13004KT 20/17 A3011 RMK A01 T01950166  RH  084%=      5-min Rain = 0
KMC1 070628Z 12005KT 19/17 A3011 RMK A01 T01940166  RH  084%=      5-min Rain = 0
KMC1 070629Z 13006KT 19/17 A3011 RMK A01 T01940166  RH  084%=      5-min Rain = 0
KMC1 070630Z 13006KT 19/17 A3011 RMK A01 T01940166  RH  084%=      5-min Rain = 0
KMC1 070631Z 13005KT 19/17 A3011 RMK A01 T01940165  RH  083%=      5-min Rain = 0
KMC1 070632Z 13005KT 19/17 A3011 RMK A01 T01940166  RH  083%=      5-min Rain = 0
KMC1 070633Z 12005KT 19/17 A3011 RMK A01 T01940165  RH  083%=      5-min Rain = 0
KMC1 070634Z 13004KT 20/17 A3011 RMK A01 T01950166  RH  083%=      5-min Rain = 0
KMC1 070635Z 12003KT 19/17 A3011 RMK A01 T01940165  RH  083%=      5-min Rain = 0
KMC1 070636Z 12004KT 20/17 A3011 RMK A01 T01950166  RH  083%=      5-min Rain = 0
KMC1 070637Z 12004KT 19/17 A3011 RMK A01 T01940166  RH  084%=      5-min Rain = 0
KMC1 070638Z 12004KT 19/17 A3011 RMK A01 T01940166  RH  084%=      5-min Rain = 0
KMC1 070639Z 13005KT 19/17 A3011 RMK A01 T01940166  RH  084%=      5-min Rain = 0
KMC1 070640Z 12005KT 19/17 A3011 RMK A01 T01940165  RH  084%=      5-min Rain = 0
KMC1 070641Z 14004KT 19/17 A3011 RMK A01 T01940166  RH  084%=      5-min Rain = 0
KMC1 070642Z 13003KT 19/17 A3011 RMK A01 T01940165  RH  083%=      5-min Rain = 0
KMC1 070643Z 13003KT 19/17 A3011 RMK A01 T01940166  RH  084%=      5-min Rain = 0
KMC1 070644Z 13006KT 19/17 A3011 RMK A01 T01940166  RH  084%=      5-min Rain = 0
KMC1 070645Z 13005KT 19/17 A3011 RMK A01 T01940165  RH  083%=      5-min Rain = 0
KMC1 070646Z 13004KT 19/17 A3011 RMK A01 T01940165  RH  083%=      5-min Rain = 0
KMC1 070647Z 13005KT 19/17 A3011 RMK A01 T01940165  RH  083%=      5-min Rain = 0
KMC1 070648Z 13005KT 19/17 A3011 RMK A01 T01940165  RH  083%=      5-min Rain = 0
KMC1 070649Z 13007KT 19/17 A3011 RMK A01 T01940165  RH  083%=      5-min Rain = 0
KMC1 070650Z 14006KT 19/17 A3011 RMK A01 T01940165  RH  083%=      5-min Rain = 0
KMC1 070651Z 14006KT 19/16 A3011 RMK A01 T01940164  RH  083%=      5-min Rain = 0
KMC1 070652Z 13006KT 19/16 A3011 RMK A01 T01940164  RH  083%=      5-min Rain = 0
KMC1 070653Z 12005KT 19/16 A3011 RMK A01 T01940164  RH  083%=      5-min Rain = 0
KMC1 070654Z 12005KT 19/16 A3011 RMK A01 T01940164  RH  083%=      5-min Rain = 0
KMC1 070655Z 12005KT 19/16 A3011 RMK A01 T01940164  RH  083%=      5-min Rain = 0
KMC1 070656Z 12006KT 19/16 A3011 RMK A01 T01940164  RH  083%=      5-min Rain = 0
KMC1 070657Z 13006KT 19/16 A3011 RMK A01 T01940164  RH  083%=      5-min Rain = 0
KMC1 070658Z 14006KT 19/16 A3011 RMK A01 T01940164  RH  083%=      5-min Rain = 0
KMC1 070659Z 14005KT 19/16 A3011 RMK A01 T01940164  RH  083%=      5-min Rain = 0
KMC1 070700Z 14004KT 19/16 A3011 RMK A01 T01940164  RH  083%=      5-min Rain = 0
KMC1 070701Z 14006KT 19/16 A3011 RMK A01 T01940164  RH  083%=      5-min Rain = 0
KMC1 070702Z 14005KT 19/16 A3011 RMK A01 T01940164  RH  083%=      5-min Rain = 0
KMC1 070703Z 13006KT 19/16 A3011 RMK A01 T01940164  RH  083%=      5-min Rain = 0
KMC1 070704Z 14007KT 19/16 A3011 RMK A01 T01940164  RH  083%=      5-min Rain = 0
KMC1 070705Z 14008KT 19/16 A3011 RMK A01 T01940163  RH  082%=      5-min Rain = 0
KMC1 070706Z 14006KT 19/16 A3011 RMK A01 T01940163  RH  082%=      5-min Rain = 0
KMC1 070707Z 14005KT 19/16 A3011 RMK A01 T01940163  RH  082%=      5-min Rain = 0
KMC1 070708Z 14006KT 19/16 A3011 RMK A01 T01940163  RH  082%=      5-min Rain = 0
KMC1 070709Z 13005KT 19/16 A3011 RMK A01 T01940164  RH  082%=      5-min Rain = 0
KMC1 070710Z 12006KT 19/16 A3011 RMK A01 T01940163  RH  082%=      5-min Rain = 0
KMC1 070711Z 14006KT 19/16 A3011 RMK A01 T01940163  RH  082%=      5-min Rain = 0
KMC1 070712Z 14004KT 19/16 A3011 RMK A01 T01930163  RH  082%=      5-min Rain = 0
KMC1 070713Z 13005KT 19/16 A3011 RMK A01 T01930163  RH  082%=      5-min Rain = 0
KMC1 070714Z 14004KT 19/16 A3011 RMK A01 T01940163  RH  082%=      5-min Rain = 0
KMC1 070715Z 14005KT 19/16 A3011 RMK A01 T01940163  RH  082%=      5-min Rain = 0
KMC1 070716Z 14007KT 19/16 A3011 RMK A01 T01940163  RH  082%=      5-min Rain = 0
KMC1 070717Z 14007KT 19/16 A3011 RMK A01 T01940163  RH  082%=      5-min Rain = 0
KMC1 070718Z 14006KT 19/16 A3012 RMK A01 T01940163  RH  082%=      5-min Rain = 0
KMC1 070719Z 14005KT 19/16 A3012 RMK A01 T01940163  RH  082%=      5-min Rain = 0
KMC1 070720Z 14007KT 19/16 A3012 RMK A01 T01940163  RH  082%=      5-min Rain = 0
KMC1 070721Z 13008KT 19/16 A3012 RMK A01 T01940163  RH  082%=      5-min Rain = 0
KMC1 070722Z 13007KT 19/16 A3012 RMK A01 T01940163  RH  082%=      5-min Rain = 0
KMC1 070723Z 14008KT 19/16 A3012 RMK A01 T01940163  RH  082%=      5-min Rain = 0
KMC1 070724Z 15007KT 19/16 A3012 RMK A01 T01940163  RH  082%=      5-min Rain = 0
KMC1 070725Z 15007G12KT 19/16 A3012 RMK A01 T01930162  RH  082%=      5-min Rain = 0
KMC1 070726Z 14006KT 19/16 A3012 RMK A01 T01940163  RH  082%=      5-min Rain = 0
KMC1 070727Z 14006KT 19/16 A3012 RMK A01 T01940163  RH  082%=      5-min Rain = 0
KMC1 070728Z 14005KT 19/16 A3012 RMK A01 T01930162  RH  082%=      5-min Rain = 0
KMC1 070729Z 14005KT 19/16 A3012 RMK A01 T01930163  RH  082%=      5-min Rain = 0
KMC1 070730Z 13005KT 19/16 A3012 RMK A01 T01930163  RH  083%=      5-min Rain = 0
KMC1 070731Z 13006KT 19/16 A3012 RMK A01 T01930163  RH  083%=      5-min Rain = 0
KMC1 070732Z 13006KT 19/16 A3012 RMK A01 T01920163  RH  083%=      5-min Rain = 0
KMC1 070733Z 14007KT 19/16 A3012 RMK A01 T01920162  RH  083%=      5-min Rain = 0
KMC1 070734Z 14006KT 19/16 A3012 RMK A01 T01920162  RH  083%=      5-min Rain = 0
KMC1 070735Z 14005KT 19/16 A3012 RMK A01 T01920162  RH  083%=      5-min Rain = 0
KMC1 070736Z 14007KT 19/16 A3012 RMK A01 T01920162  RH  083%=      5-min Rain = 0
KMC1 070737Z 13005KT 19/16 A3012 RMK A01 T01920162  RH  083%=      5-min Rain = 0
KMC1 070738Z 14004KT 19/16 A3012 RMK A01 T01920163  RH  083%=      5-min Rain = 0
KMC1 070739Z 14007KT 19/16 A3012 RMK A01 T01910162  RH  083%=      5-min Rain = 0
KMC1 070740Z 14007KT 19/16 A3012 RMK A01 T01910162  RH  083%=      5-min Rain = 0
KMC1 070741Z 14006KT 19/16 A3012 RMK A01 T01910162  RH  083%=      5-min Rain = 0
KMC1 070742Z 14004KT 19/16 A3012 RMK A01 T01910162  RH  083%=      5-min Rain = 0
KMC1 070743Z 14004KT 19/16 A3012 RMK A01 T01910162  RH  083%=      5-min Rain = 0
KMC1 070744Z 14006KT 19/16 A3012 RMK A01 T01910162  RH  083%=      5-min Rain = 0
KMC1 070745Z 15007KT 19/16 A3012 RMK A01 T01910163  RH  084%=      5-min Rain = 0
KMC1 070746Z 14007KT 19/16 A3012 RMK A01 T01910162  RH  084%=      5-min Rain = 0
KMC1 070747Z 13007KT 19/16 A3012 RMK A01 T01910162  RH  084%=      5-min Rain = 0
KMC1 070748Z 15005KT 19/16 A3012 RMK A01 T01910162  RH  084%=      5-min Rain = 0
KMC1 070749Z 14004KT 19/16 A3012 RMK A01 T01900162  RH  084%=      5-min Rain = 0
KMC1 070750Z 14005KT 19/16 A3012 RMK A01 T01900162  RH  084%=      5-min Rain = 0
KMC1 070751Z 13006KT 19/16 A3012 RMK A01 T01900162  RH  084%=      5-min Rain = 0
KMC1 070752Z 14005KT 19/16 A3012 RMK A01 T01900162  RH  084%=      5-min Rain = 0
KMC1 070753Z 13006KT 19/16 A3012 RMK A01 T01900162  RH  084%=      5-min Rain = 0
KMC1 070754Z 14007KT 19/16 A3012 RMK A01 T01890162  RH  084%=      5-min Rain = 0
KMC1 070755Z 14007KT 19/16 A3011 RMK A01 T01900162  RH  084%=      5-min Rain = 0
KMC1 070756Z 15006KT 19/16 A3011 RMK A01 T01900162  RH  084%=      5-min Rain = 0
KMC1 070757Z 14006KT 19/16 A3011 RMK A01 T01890162  RH  084%=      5-min Rain = 0
KMC1 070758Z 13006KT 19/16 A3011 RMK A01 T01890162  RH  084%=      5-min Rain = 0
KMC1 070759Z 14004G9KT 19/16 A3011 RMK A01 T01890162  RH  084%=      5-min Rain = 0
KMC1 070800Z 14007KT 19/16 A3011 RMK A01 T01890162  RH  084%=      5-min Rain = 0
KMC1 070801Z 13005KT 19/16 A3011 RMK A01 T01890162  RH  084%=      5-min Rain = 0
KMC1 070802Z 14006KT 19/16 A3011 RMK A01 T01890162  RH  084%=      5-min Rain = 0
KMC1 070803Z 14004KT 19/16 A3011 RMK A01 T01890162  RH  084%=      5-min Rain = 0
KMC1 070804Z 14005KT 19/16 A3011 RMK A01 T01890162  RH  084%=      5-min Rain = 0
KMC1 070805Z 14006KT 19/16 A3011 RMK A01 T01890162  RH  084%=      5-min Rain = 0
KMC1 070806Z 14005KT 19/16 A3011 RMK A01 T01880162  RH  084%=      5-min Rain = 0
KMC1 070807Z 15004KT 19/16 A3011 RMK A01 T01890162  RH  084%=      5-min Rain = 0
KMC1 070808Z 14005G10KT 19/16 A3011 RMK A01 T01880162  RH  085%=      5-min Rain = 0
KMC1 070809Z 15006G11KT 19/16 A3011 RMK A01 T01880162  RH  085%=      5-min Rain = 0
KMC1 070810Z 14005KT 19/16 A3011 RMK A01 T01880162  RH  085%=      5-min Rain = 0
KMC1 070811Z 14006KT 19/16 A3011 RMK A01 T01880162  RH  085%=      5-min Rain = 0
KMC1 070812Z 14007KT 19/16 A3011 RMK A01 T01880162  RH  085%=      5-min Rain = 0
KMC1 070813Z 14006KT 19/16 A3011 RMK A01 T01880162  RH  085%=      5-min Rain = 0
KMC1 070814Z 15005KT 19/16 A3011 RMK A01 T01880162  RH  085%=      5-min Rain = 0
KMC1 070815Z 15006KT 19/16 A3011 RMK A01 T01880162  RH  085%=      5-min Rain = 0
KMC1 070816Z 14005KT 19/16 A3011 RMK A01 T01880162  RH  085%=      5-min Rain = 0
KMC1 070817Z 14006KT 19/16 A3011 RMK A01 T01880162  RH  085%=      5-min Rain = 0
KMC1 070818Z 14006KT 19/16 A3011 RMK A01 T01880162  RH  085%=      5-min Rain = 0
KMC1 070819Z 15006KT 19/16 A3011 RMK A01 T01880162  RH  085%=      5-min Rain = 0
KMC1 070820Z 14004KT 19/16 A3011 RMK A01 T01880162  RH  085%=      5-min Rain = 0
KMC1 070821Z 15004KT 19/16 A3011 RMK A01 T01880162  RH  085%=      5-min Rain = 0
KMC1 070822Z 14004KT 19/16 A3011 RMK A01 T01870161  RH  085%=      5-min Rain = 0
KMC1 070823Z 14005KT 19/16 A3011 RMK A01 T01870161  RH  085%=      5-min Rain = 0
KMC1 070824Z 14003KT 19/16 A3011 RMK A01 T01870161  RH  085%=      5-min Rain = 0
KMC1 070825Z 14006KT 19/16 A3011 RMK A01 T01870161  RH  085%=      5-min Rain = 0
KMC1 070826Z 14006KT 19/16 A3011 RMK A01 T01860161  RH  085%=      5-min Rain = 0
KMC1 070827Z 14006KT 19/16 A3011 RMK A01 T01870161  RH  085%=      5-min Rain = 0
KMC1 070828Z 14006KT 19/16 A3011 RMK A01 T01870161  RH  085%=      5-min Rain = 0
KMC1 070829Z 15006KT 19/16 A3011 RMK A01 T01870161  RH  085%=      5-min Rain = 0
KMC1 070830Z 15004KT 19/16 A3011 RMK A01 T01870161  RH  085%=      5-min Rain = 0
KMC1 070831Z 13004KT 19/16 A3011 RMK A01 T01870161  RH  085%=      5-min Rain = 0
KMC1 070832Z 14007KT 19/16 A3011 RMK A01 T01860161  RH  085%=      5-min Rain = 0
KMC1 070833Z 15005KT 19/16 A3011 RMK A01 T01860161  RH  085%=      5-min Rain = 0
KMC1 070834Z 15004KT 19/16 A3011 RMK A01 T01860161  RH  085%=      5-min Rain = 0
KMC1 070835Z 15005G10KT 19/16 A3011 RMK A01 T01860161  RH  085%=      5-min Rain = 0
KMC1 070836Z 15006KT 19/16 A3011 RMK A01 T01860161  RH  085%=      5-min Rain = 0
KMC1 070837Z 15006KT 19/16 A3011 RMK A01 T01860161  RH  085%=      5-min Rain = 0
KMC1 070838Z 14003KT 19/16 A3011 RMK A01 T01860161  RH  085%=      5-min Rain = 0
KMC1 070839Z 15005KT 19/16 A3011 RMK A01 T01860161  RH  085%=      5-min Rain = 0
KMC1 070840Z 15005KT 19/16 A3011 RMK A01 T01860161  RH  085%=      5-min Rain = 0
KMC1 070841Z 16005KT 19/16 A3012 RMK A01 T01860161  RH  086%=      5-min Rain = 0
KMC1 070842Z 15004KT 19/16 A3012 RMK A01 T01860161  RH  086%=      5-min Rain = 0
KMC1 070843Z 15004KT 19/16 A3012 RMK A01 T01850161  RH  086%=      5-min Rain = 0
KMC1 070844Z 15003KT 19/16 A3012 RMK A01 T01850161  RH  086%=      5-min Rain = 0
KMC1 070845Z 16004KT 19/16 A3012 RMK A01 T01860162  RH  086%=      5-min Rain = 0
KMC1 070846Z 16003KT 19/16 A3012 RMK A01 T01860162  RH  086%=      5-min Rain = 0
KMC1 070847Z 16004KT 19/16 A3012 RMK A01 T01850161  RH  086%=      5-min Rain = 0
KMC1 070848Z 17004KT 19/16 A3012 RMK A01 T01850161  RH  086%=      5-min Rain = 0
KMC1 070849Z 17003KT 19/16 A3012 RMK A01 T01850161  RH  086%=      5-min Rain = 0
KMC1 070850Z 17004KT 19/16 A3012 RMK A01 T01850161  RH  086%=      5-min Rain = 0
KMC1 070851Z 17003KT 19/16 A3012 RMK A01 T01850161  RH  086%=      5-min Rain = 0
KMC1 070852Z 17003KT 19/16 A3012 RMK A01 T01850161  RH  086%=      5-min Rain = 0
KMC1 070853Z 17003KT 19/16 A3012 RMK A01 T01850161  RH  086%=      5-min Rain = 0
KMC1 070854Z 16003KT 19/16 A3012 RMK A01 T01850162  RH  086%=      5-min Rain = 0
KMC1 070855Z 17003KT 19/16 A3012 RMK A01 T01850162  RH  086%=      5-min Rain = 0
KMC1 070856Z 17003KT 19/16 A3012 RMK A01 T01850162  RH  086%=      5-min Rain = 0
KMC1 070857Z 16003KT 19/16 A3012 RMK A01 T01850161  RH  086%=      5-min Rain = 0
KMC1 070858Z 18003KT 19/16 A3012 RMK A01 T01850162  RH  086%=      5-min Rain = 0
KMC1 070859Z 17002KT 19/16 A3013 RMK A01 T01850162  RH  086%=      5-min Rain = 0
KMC1 070900Z 18002KT 19/16 A3013 RMK A01 T01850162  RH  086%=      5-min Rain = 0
KMC1 070901Z 18002KT 19/16 A3013 RMK A01 T01850162  RH  086%=      5-min Rain = 0
KMC1 070902Z 17003KT 19/16 A3013 RMK A01 T01850162  RH  086%=      5-min Rain = 0
KMC1 070903Z 18003KT 19/16 A3013 RMK A01 T01850162  RH  086%=      5-min Rain = 0
KMC1 070904Z 17003KT 19/16 A3013 RMK A01 T01850162  RH  086%=      5-min Rain = 0
KMC1 070905Z 17002KT 19/16 A3013 RMK A01 T01850162  RH  086%=      5-min Rain = 0
KMC1 070906Z 17003KT 19/16 A3013 RMK A01 T01850162  RH  086%=      5-min Rain = 0
KMC1 070907Z 18003KT 19/16 A3013 RMK A01 T01850162  RH  086%=      5-min Rain = 0
KMC1 070908Z 18003KT 19/16 A3013 RMK A01 T01850162  RH  086%=      5-min Rain = 0
KMC1 070909Z 19003KT 19/16 A3013 RMK A01 T01850162  RH  086%=      5-min Rain = 0
KMC1 070910Z 18003KT 19/16 A3013 RMK A01 T01850162  RH  086%=      5-min Rain = 0
KMC1 070911Z 18003KT 19/16 A3013 RMK A01 T01850162  RH  087%=      5-min Rain = 0
KMC1 070912Z 17002KT 19/16 A3013 RMK A01 T01850162  RH  087%=      5-min Rain = 0
KMC1 070913Z 18003KT 19/16 A3013 RMK A01 T01850162  RH  087%=      5-min Rain = 0
KMC1 070914Z 17003KT 18/16 A3013 RMK A01 T01840162  RH  087%=      5-min Rain = 0
KMC1 070915Z 17002KT 18/16 A3013 RMK A01 T01840162  RH  087%=      5-min Rain = 0
KMC1 070916Z 17002KT 18/16 A3013 RMK A01 T01840162  RH  087%=      5-min Rain = 0
KMC1 070917Z 17003KT 18/16 A3013 RMK A01 T01840162  RH  087%=      5-min Rain = 0
KMC1 070918Z 17003KT 18/16 A3013 RMK A01 T01840163  RH  087%=      5-min Rain = 0
KMC1 070919Z 16003KT 18/16 A3013 RMK A01 T01840162  RH  087%=      5-min Rain = 0
KMC1 070920Z 17003KT 18/16 A3013 RMK A01 T01840163  RH  087%=      5-min Rain = 0
KMC1 070921Z 16003KT 18/16 A3013 RMK A01 T01840163  RH  087%=      5-min Rain = 0
KMC1 070922Z 16003KT 18/16 A3013 RMK A01 T01840163  RH  087%=      5-min Rain = 0
KMC1 070923Z 15002KT 18/16 A3013 RMK A01 T01840163  RH  087%=      5-min Rain = 0
KMC1 070924Z 17003KT 18/16 A3013 RMK A01 T01840163  RH  088%=      5-min Rain = 0
KMC1 070925Z 17003KT 18/16 A3013 RMK A01 T01830163  RH  088%=      5-min Rain = 0
KMC1 070926Z 17003KT 18/16 A3013 RMK A01 T01830163  RH  088%=      5-min Rain = 0
KMC1 070927Z 16004KT 18/16 A3013 RMK A01 T01830163  RH  088%=      5-min Rain = 0
KMC1 070928Z 17003KT 18/16 A3013 RMK A01 T01830163  RH  088%=      5-min Rain = 0
KMC1 070929Z 17003KT 18/16 A3013 RMK A01 T01830164  RH  088%=      5-min Rain = 0
KMC1 070930Z 18002KT 18/16 A3013 RMK A01 T01830164  RH  088%=      5-min Rain = 0
KMC1 070931Z 18001KT 18/16 A3013 RMK A01 T01830164  RH  089%=      5-min Rain = 0
KMC1 070932Z 19001KT 18/16 A3013 RMK A01 T01830164  RH  089%=      5-min Rain = 0
KMC1 070933Z 19001KT 18/17 A3013 RMK A01 T01830165  RH  089%=      5-min Rain = 0
KMC1 070934Z 20001KT 18/16 A3013 RMK A01 T01820164  RH  089%=      5-min Rain = 0
KMC1 070935Z 21001KT 18/16 A3013 RMK A01 T01820164  RH  089%=      5-min Rain = 0
KMC1 070936Z 24002KT 18/17 A3013 RMK A01 T01820165  RH  090%=      5-min Rain = 0
KMC1 070937Z 26003KT 18/17 A3014 RMK A01 T01820165  RH  090%=      5-min Rain = 0
KMC1 070938Z 27003KT 18/17 A3014 RMK A01 T01820165  RH  090%=      5-min Rain = 0
KMC1 070939Z 28003KT 18/17 A3014 RMK A01 T01820166  RH  091%=      5-min Rain = 0
KMC1 070940Z 28003KT 18/17 A3014 RMK A01 T01810166  RH  091%=      5-min Rain = 0
KMC1 070941Z 28004KT 18/17 A3014 RMK A01 T01810166  RH  091%=      5-min Rain = 0
KMC1 070942Z 28003KT 18/17 A3014 RMK A01 T01810167  RH  092%=      5-min Rain = 0
KMC1 070943Z 27002KT 18/17 A3014 RMK A01 T01810168  RH  092%=      5-min Rain = 0
KMC1 070944Z 28001KT 18/17 A3014 RMK A01 T01800168  RH  092%=      5-min Rain = 0
KMC1 070945Z 30000KT 18/17 A3013 RMK A01 T01800168  RH  092%=      5-min Rain = 0
KMC1 070946Z 00000KT 18/17 A3013 RMK A01 T01800168  RH  093%=      5-min Rain = 0
KMC1 070947Z 00000KT 18/17 A3013 RMK A01 T01790168  RH  093%=      5-min Rain = 0
KMC1 070948Z 00000KT 18/17 A3013 RMK A01 T01790169  RH  093%=      5-min Rain = 0
KMC1 070949Z 00000KT 18/17 A3013 RMK A01 T01790169  RH  094%=      5-min Rain = 0
KMC1 070950Z 25000KT 18/17 A3013 RMK A01 T01790169  RH  094%=      5-min Rain = 0
KMC1 070951Z 25001KT 18/17 A3013 RMK A01 T01780169  RH  094%=      5-min Rain = 0
KMC1 070952Z 24002KT 18/17 A3013 RMK A01 T01780169  RH  094%=      5-min Rain = 0
KMC1 070953Z 24002KT 18/17 A3013 RMK A01 T01780169  RH  094%=      5-min Rain = 0
KMC1 070954Z 23002KT 18/17 A3013 RMK A01 T01780169  RH  095%=      5-min Rain = 0
KMC1 070955Z 22001KT 18/17 A3013 RMK A01 T01780170  RH  095%=      5-min Rain = 0
KMC1 070956Z 23001KT 18/17 A3013 RMK A01 T01770170  RH  095%=      5-min Rain = 0
KMC1 070957Z 25002KT 18/17 A3013 RMK A01 T01770170  RH  096%=      5-min Rain = 0
KMC1 070958Z 27002KT 18/17 A3014 RMK A01 T01770170  RH  096%=      5-min Rain = 0
KMC1 070959Z 28002KT 18/17 A3014 RMK A01 T01770170  RH  096%=      5-min Rain = 0.01
KMC1 071000Z 28002KT 18/17 A3014 RMK A01 T01770170  RH  096%=      5-min Rain = 0
KMC1 071001Z 28003KT 18/17 A3014 RMK A01 T01760171  RH  097%=      5-min Rain = 0
KMC1 071002Z 28004KT 18/17 A3014 RMK A01 T01760171  RH  097%=      5-min Rain = 0
KMC1 071003Z 28005KT 18/17 A3014 RMK A01 T01760172  RH  097%=      5-min Rain = 0
KMC1 071004Z 28006KT 18/17 A3015 RMK A01 T01760172  RH  098%=      5-min Rain = 0
KMC1 071005Z 28007KT 18/17 A3015 RMK A01 T01760172  RH  098%=      5-min Rain = 0.01
KMC1 071006Z 27005KT 18/17 A3015 RMK A01 T01750172  RH  098%=      5-min Rain = 0
KMC1 071007Z 27006KT 18/17 A3015 RMK A01 T01750172  RH  098%=      5-min Rain = 0.01
KMC1 071008Z 28006KT 18/17 A3015 RMK A01 T01750172  RH  098%=      5-min Rain = 0
KMC1 071009Z 28006KT 18/17 A3015 RMK A01 T01750172  RH  098%=      5-min Rain = 0
KMC1 071010Z 28006KT 18/17 A3015 RMK A01 T01750172  RH  098%=      5-min Rain = 0
KMC1 071011Z 28006KT 17/17 A3015 RMK A01 T01740172  RH  098%=      5-min Rain = 0
KMC1 071012Z 28003KT 18/17 A3015 RMK A01 T01750172  RH  098%=      5-min Rain = 0
KMC1 071013Z 27004KT 17/17 A3014 RMK A01 T01740172  RH  099%=      5-min Rain = 0
KMC1 071014Z 27004KT 17/17 A3014 RMK A01 T01740172  RH  099%=      5-min Rain = 0
KMC1 071015Z 27003KT 17/17 A3014 RMK A01 T01740172  RH  099%=      5-min Rain = 0
KMC1 071016Z 27003KT 17/17 A3014 RMK A01 T01740172  RH  099%=      5-min Rain = 0
KMC1 071017Z 26002KT 17/17 A3014 RMK A01 T01740173  RH  099%=      5-min Rain = 0
KMC1 071018Z 24001KT 17/17 A3014 RMK A01 T01740172  RH  099%=      5-min Rain = 0
KMC1 071019Z 20001KT 17/17 A3013 RMK A01 T01740172  RH  099%=      5-min Rain = 0
KMC1 071020Z 14001KT 17/17 A3013 RMK A01 T01740172  RH  099%=      5-min Rain = 0
KMC1 071021Z 13002KT 17/17 A3013 RMK A01 T01740172  RH  099%=      5-min Rain = 0
KMC1 071022Z 13003KT 17/17 A3013 RMK A01 T01740172  RH  099%=      5-min Rain = 0
KMC1 071023Z 12003KT 17/17 A3013 RMK A01 T01740172  RH  099%=      5-min Rain = 0
KMC1 071024Z 12002KT 17/17 A3012 RMK A01 T01740172  RH  099%=      5-min Rain = 0
KMC1 071025Z 11002KT 17/17 A3013 RMK A01 T01740172  RH  099%=      5-min Rain = 0
KMC1 071026Z 11001KT 17/17 A3013 RMK A01 T01740172  RH  099%=      5-min Rain = 0
KMC1 071027Z 00000KT 17/17 A3013 RMK A01 T01740172  RH  099%=      5-min Rain = 0
KMC1 071028Z 21000KT 17/17 A3013 RMK A01 T01740172  RH  099%=      5-min Rain = 0
KMC1 071029Z 24001KT 17/17 A3014 RMK A01 T01730172  RH  099%=      5-min Rain = 0
KMC1 071030Z 25002KT 17/17 A3014 RMK A01 T01740172  RH  099%=      5-min Rain = 0
KMC1 071031Z 27002KT 17/17 A3014 RMK A01 T01730172  RH  099%=      5-min Rain = 0
KMC1 071032Z 30002KT 17/17 A3014 RMK A01 T01740172  RH  099%=      5-min Rain = 0
KMC1 071033Z 32003KT 17/17 A3014 RMK A01 T01730172  RH  099%=      5-min Rain = 0
KMC1 071034Z 33004KT 17/17 A3013 RMK A01 T01740172  RH  099%=      5-min Rain = 0
KMC1 071035Z 34004KT 17/17 A3013 RMK A01 T01740172  RH  099%=      5-min Rain = 0
KMC1 071036Z 35004KT 17/17 A3013 RMK A01 T01740172  RH  099%=      5-min Rain = 0
KMC1 071037Z 35004KT 17/17 A3013 RMK A01 T01740172  RH  099%=      5-min Rain = 0
KMC1 071038Z 00003KT 17/17 A3013 RMK A01 T01730172  RH  099%=      5-min Rain = 0
KMC1 071039Z 01003KT 17/17 A3013 RMK A01 T01730172  RH  099%=      5-min Rain = 0
KMC1 071040Z 02002KT 17/17 A3013 RMK A01 T01730172  RH  099%=      5-min Rain = 0
KMC1 071041Z 03002KT 17/17 A3013 RMK A01 T01730172  RH  099%=      5-min Rain = 0
KMC1 071042Z 05002KT 17/17 A3013 RMK A01 T01730172  RH  099%=      5-min Rain = 0
KMC1 071043Z 06002KT 17/17 A3013 RMK A01 T01730172  RH  099%=      5-min Rain = 0
KMC1 071044Z 07001KT 17/17 A3013 RMK A01 T01730172  RH  099%=      5-min Rain = 0
KMC1 071045Z 06000KT 17/17 A3013 RMK A01 T01730172  RH  099%=      5-min Rain = 0
KMC1 071046Z 00000KT 17/17 A3013 RMK A01 T01730172  RH  099%=      5-min Rain = 0
KMC1 071047Z 06001KT 17/17 A3013 RMK A01 T01730172  RH  100%=      5-min Rain = 0
KMC1 071048Z 06002KT 17/17 A3013 RMK A01 T01730172  RH  100%=      5-min Rain = 0
KMC1 071049Z 07003KT 17/17 A3013 RMK A01 T01730172  RH  100%=      5-min Rain = 0
KMC1 071050Z 07004KT 17/17 A3012 RMK A01 T01730172  RH  100%=      5-min Rain = 0
KMC1 071051Z 08004KT 17/17 A3012 RMK A01 T01730172  RH  100%=      5-min Rain = 0
KMC1 071052Z 08004KT 17/17 A3012 RMK A01 T01720172  RH  100%=      5-min Rain = 0
KMC1 071053Z 07004KT 17/17 A3012 RMK A01 T01720172  RH  100%=      5-min Rain = 0
KMC1 071054Z 07004KT 17/17 A3012 RMK A01 T01720171  RH  100%=      5-min Rain = 0
KMC1 071055Z 07005KT 17/17 A3012 RMK A01 T01720171  RH  100%=      5-min Rain = 0
KMC1 071056Z 08004KT 17/17 A3012 RMK A01 T01720172  RH  100%=      5-min Rain = 0
KMC1 071057Z 08004KT 17/17 A3012 RMK A01 T01720171  RH  100%=      5-min Rain = 0
KMC1 071058Z 09003KT 17/17 A3012 RMK A01 T01720171  RH  100%=      5-min Rain = 0
KMC1 071059Z 09003KT 17/17 A3012 RMK A01 T01720171  RH  100%=      5-min Rain = 0
KMC1 071100Z 09004KT 17/17 A3012 RMK A01 T01720172  RH  100%=      5-min Rain = 0
KMC1 071101Z 09004KT 17/17 A3012 RMK A01 T01710171  RH  100%=      5-min Rain = 0
KMC1 071102Z 10005KT 17/17 A3012 RMK A01 T01710171  RH  100%=      5-min Rain = 0
KMC1 071103Z 10004KT 17/17 A3012 RMK A01 T01710171  RH  100%=      5-min Rain = 0
KMC1 071104Z 10005KT 17/17 A3012 RMK A01 T01710171  RH  100%=      5-min Rain = 0
KMC1 071105Z 10004KT 17/17 A3012 RMK A01 T01710171  RH  100%=      5-min Rain = 0.01
KMC1 071106Z 10004KT 17/17 A3012 RMK A01 T01710171  RH  100%=      5-min Rain = 0
KMC1 071107Z 09004KT 17/17 A3012 RMK A01 T01710171  RH  100%=      5-min Rain = 0
KMC1 071108Z 08004KT 17/17 A3012 RMK A01 T01710171  RH  100%=      5-min Rain = 0
KMC1 071109Z 08005KT 17/17 A3012 RMK A01 T01710171  RH  100%=      5-min Rain = 0
KMC1 071110Z 08005KT 17/17 A3011 RMK A01 T01710171  RH  100%=      5-min Rain = 0
KMC1 071111Z 08006KT 17/17 A3011 RMK A01 T01710171  RH  100%=      5-min Rain = 0
KMC1 071112Z 09005KT 17/17 A3011 RMK A01 T01710171  RH  100%=      5-min Rain = 0
KMC1 071113Z 08004KT 17/17 A3011 RMK A01 T01710171  RH  100%=      5-min Rain = 0
KMC1 071114Z 09003KT 17/17 A3012 RMK A01 T01710171  RH  100%=      5-min Rain = 0
KMC1 071115Z 11004KT 17/17 A3012 RMK A01 T01710171  RH  100%=      5-min Rain = 0
KMC1 071116Z 11003KT 17/17 A3012 RMK A01 T01710171  RH  100%=      5-min Rain = 0
KMC1 071117Z 12005KT 17/17 A3012 RMK A01 T01710171  RH  100%=      5-min Rain = 0
KMC1 071118Z 12005KT 17/17 A3012 RMK A01 T01700171  RH  100%=      5-min Rain = 0
KMC1 071119Z 12004KT 17/17 A3012 RMK A01 T01700170  RH  100%=      5-min Rain = 0
KMC1 071120Z 12005KT 17/17 A3012 RMK A01 T01700170  RH  100%=      5-min Rain = 0
KMC1 071121Z 11005KT 17/17 A3012 RMK A01 T01700170  RH  100%=      5-min Rain = 0
KMC1 071122Z 10005KT 17/17 A3012 RMK A01 T01700170  RH  100%=      5-min Rain = 0
KMC1 071123Z 10004KT 17/17 A3012 RMK A01 T01700170  RH  100%=      5-min Rain = 0
KMC1 071124Z 09004KT 17/17 A3012 RMK A01 T01700170  RH  100%=      5-min Rain = 0
KMC1 071125Z 09003KT 17/17 A3012 RMK A01 T01700170  RH  100%=      5-min Rain = 0
KMC1 071126Z 09004KT 17/17 A3012 RMK A01 T01700170  RH  100%=      5-min Rain = 0
KMC1 071127Z 08004KT 17/17 A3012 RMK A01 T01700170  RH  100%=      5-min Rain = 0
KMC1 071128Z 09003KT 17/17 A3012 RMK A01 T01690170  RH  100%=      5-min Rain = 0
KMC1 071129Z 09004KT 17/17 A3012 RMK A01 T01690169  RH  100%=      5-min Rain = 0
KMC1 071130Z 10003KT 17/17 A3012 RMK A01 T01690170  RH  100%=      5-min Rain = 0
KMC1 071131Z 10004KT 17/17 A3012 RMK A01 T01690170  RH  100%=      5-min Rain = 0
KMC1 071132Z 09004KT 17/17 A3012 RMK A01 T01690169  RH  100%=      5-min Rain = 0
KMC1 071133Z 09004KT 17/17 A3012 RMK A01 T01690170  RH  100%=      5-min Rain = 0
KMC1 071134Z 09004KT 17/17 A3012 RMK A01 T01690169  RH  100%=      5-min Rain = 0
KMC1 071135Z 09004KT 17/17 A3012 RMK A01 T01690169  RH  100%=      5-min Rain = 0
KMC1 071136Z 10004KT 17/17 A3012 RMK A01 T01690169  RH  100%=      5-min Rain = 0
KMC1 071137Z 09004KT 17/17 A3012 RMK A01 T01690169  RH  100%=      5-min Rain = 0
KMC1 071138Z 09003KT 17/17 A3012 RMK A01 T01690169  RH  100%=      5-min Rain = 0
KMC1 071139Z 10004KT 17/17 A3012 RMK A01 T01690169  RH  100%=      5-min Rain = 0
KMC1 071140Z 10004KT 17/17 A3012 RMK A01 T01690169  RH  100%=      5-min Rain = 0
KMC1 071141Z 11004KT 17/17 A3012 RMK A01 T01690169  RH  100%=      5-min Rain = 0
KMC1 071142Z 10004KT 17/17 A3012 RMK A01 T01680169  RH  100%=      5-min Rain = 0
KMC1 071143Z 10004KT 17/17 A3013 RMK A01 T01690169  RH  100%=      5-min Rain = 0
KMC1 071144Z 09003KT 17/17 A3013 RMK A01 T01680168  RH  100%=      5-min Rain = 0.01
KMC1 071145Z 09003KT 17/17 A3013 RMK A01 T01680168  RH  100%=      5-min Rain = 0
KMC1 071146Z 09002KT 17/17 A3013 RMK A01 T01680168  RH  100%=      5-min Rain = 0
KMC1 071147Z 08003KT 17/17 A3013 RMK A01 T01680169  RH  100%=      5-min Rain = 0
KMC1 071148Z 09002KT 17/17 A3013 RMK A01 T01680168  RH  100%=      5-min Rain = 0
KMC1 071149Z 07003KT 17/17 A3013 RMK A01 T01680168  RH  100%=      5-min Rain = 0
KMC1 071150Z 06002KT 17/17 A3013 RMK A01 T01680168  RH  100%=      5-min Rain = 0
KMC1 071151Z 06002KT 17/17 A3013 RMK A01 T01680168  RH  100%=      5-min Rain = 0
KMC1 071152Z 05003KT 17/17 A3013 RMK A01 T01680168  RH  100%=      5-min Rain = 0
KMC1 071153Z 06003KT 17/17 A3012 RMK A01 T01680168  RH  100%=      5-min Rain = 0
KMC1 071154Z 06004KT 17/17 A3012 RMK A01 T01670168  RH  100%=      5-min Rain = 0
KMC1 071155Z 05003KT 17/17 A3012 RMK A01 T01680168  RH  100%=      5-min Rain = 0
KMC1 071156Z 06003KT 17/17 A3013 RMK A01 T01670168  RH  100%=      5-min Rain = 0
KMC1 071157Z 06002KT 17/17 A3013 RMK A01 T01680168  RH  100%=      5-min Rain = 0
KMC1 071158Z 06003KT 17/17 A3013 RMK A01 T01670168  RH  100%=      5-min Rain = 0
KMC1 071159Z 05004KT 17/17 A3013 RMK A01 T01680168  RH  100%=      5-min Rain = 0
KMC1 071200Z 05003KT 17/17 A3013 RMK A01 T01680168  RH  100%=      5-min Rain = 0
KMC1 071201Z 05004KT 17/17 A3013 RMK A01 T01680168  RH  100%=      5-min Rain = 0
KMC1 071202Z 05004KT 17/17 A3013 RMK A01 T01670168  RH  100%=      5-min Rain = 0
KMC1 071203Z 06003KT 17/17 A3013 RMK A01 T01680168  RH  100%=      5-min Rain = 0
KMC1 071204Z 07003KT 17/17 A3013 RMK A01 T01670167  RH  100%=      5-min Rain = 0
KMC1 071205Z 06003KT 17/17 A3013 RMK A01 T01680168  RH  100%=      5-min Rain = 0
KMC1 071206Z 07003KT 17/17 A3013 RMK A01 T01680168  RH  100%=      5-min Rain = 0
KMC1 071207Z 05002KT 17/17 A3013 RMK A01 T01680168  RH  100%=      5-min Rain = 0
KMC1 071208Z 05004KT 17/17 A3013 RMK A01 T01680168  RH  100%=      5-min Rain = 0
KMC1 071209Z 06003KT 17/17 A3013 RMK A01 T01680168  RH  100%=      5-min Rain = 0
KMC1 071210Z 05003KT 17/17 A3013 RMK A01 T01670168  RH  100%=      5-min Rain = 0
KMC1 071211Z 06003KT 17/17 A3013 RMK A01 T01670168  RH  100%=      5-min Rain = 0
KMC1 071212Z 06004KT 17/17 A3013 RMK A01 T01680168  RH  100%=      5-min Rain = 0
KMC1 071213Z 06004KT 17/17 A3013 RMK A01 T01680168  RH  100%=      5-min Rain = 0
KMC1 071214Z 06003KT 17/17 A3013 RMK A01 T01670168  RH  100%=      5-min Rain = 0
KMC1 071215Z 07003KT 17/17 A3013 RMK A01 T01680168  RH  100%=      5-min Rain = 0
KMC1 071216Z 07005KT 17/17 A3013 RMK A01 T01670168  RH  100%=      5-min Rain = 0
KMC1 071217Z 07004KT 17/17 A3013 RMK A01 T01680168  RH  100%=      5-min Rain = 0
KMC1 071218Z 07003KT 17/17 A3013 RMK A01 T01680168  RH  100%=      5-min Rain = 0
KMC1 071219Z 07003KT 17/17 A3013 RMK A01 T01670168  RH  100%=      5-min Rain = 0
KMC1 071220Z 06003KT 17/17 A3013 RMK A01 T01680168  RH  100%=      5-min Rain = 0
KMC1 071221Z 07003KT 17/17 A3013 RMK A01 T01670168  RH  100%=      5-min Rain = 0
KMC1 071222Z 07005KT 17/17 A3013 RMK A01 T01680168  RH  100%=      5-min Rain = 0
KMC1 071223Z 07004KT 17/17 A3013 RMK A01 T01670168  RH  100%=      5-min Rain = 0
KMC1 071224Z 06004KT 17/17 A3013 RMK A01 T01680168  RH  100%=      5-min Rain = 0
KMC1 071225Z 06004KT 17/17 A3013 RMK A01 T01680168  RH  100%=      5-min Rain = 0
KMC1 071226Z 08003KT 17/17 A3013 RMK A01 T01670168  RH  100%=      5-min Rain = 0
KMC1 071227Z 07004KT 17/17 A3013 RMK A01 T01680168  RH  100%=      5-min Rain = 0
KMC1 071228Z 07005KT 17/17 A3014 RMK A01 T01680168  RH  100%=      5-min Rain = 0
KMC1 071229Z 08005KT 17/17 A3014 RMK A01 T01680168  RH  100%=      5-min Rain = 0
KMC1 071230Z 08004KT 17/17 A3014 RMK A01 T01680168  RH  100%=      5-min Rain = 0
KMC1 071231Z 07003KT 17/17 A3014 RMK A01 T01670168  RH  100%=      5-min Rain = 0
KMC1 071232Z 07004KT 17/17 A3014 RMK A01 T01670168  RH  100%=      5-min Rain = 0
KMC1 071233Z 07005KT 17/17 A3014 RMK A01 T01680168  RH  100%=      5-min Rain = 0
KMC1 071234Z 07004KT 17/17 A3014 RMK A01 T01670168  RH  100%=      5-min Rain = 0
KMC1 071235Z 07003KT 17/17 A3014 RMK A01 T01670167  RH  100%=      5-min Rain = 0
KMC1 071236Z 06005KT 17/17 A3014 RMK A01 T01670167  RH  100%=      5-min Rain = 0
KMC1 071237Z 06003KT 17/17 A3014 RMK A01 T01670167  RH  100%=      5-min Rain = 0
KMC1 071238Z 07005KT 17/17 A3014 RMK A01 T01670167  RH  100%=      5-min Rain = 0
KMC1 071239Z 07004KT 17/17 A3014 RMK A01 T01670167  RH  100%=      5-min Rain = 0
KMC1 071240Z 07006KT 17/17 A3014 RMK A01 T01670167  RH  100%=      5-min Rain = 0
KMC1 071241Z 07005KT 17/17 A3014 RMK A01 T01670167  RH  100%=      5-min Rain = 0
KMC1 071242Z 07006KT 17/17 A3014 RMK A01 T01670167  RH  100%=      5-min Rain = 0
KMC1 071243Z 07004KT 17/17 A3014 RMK A01 T01670167  RH  100%=      5-min Rain = 0
KMC1 071244Z 06004KT 17/17 A3014 RMK A01 T01670167  RH  100%=      5-min Rain = 0
KMC1 071245Z 07003KT 17/17 A3015 RMK A01 T01670167  RH  100%=      5-min Rain = 0
KMC1 071246Z 05004KT 17/17 A3015 RMK A01 T01670167  RH  100%=      5-min Rain = 0
KMC1 071247Z 05005KT 17/17 A3015 RMK A01 T01670167  RH  100%=      5-min Rain = 0
KMC1 071248Z 05005KT 17/17 A3015 RMK A01 T01670167  RH  100%=      5-min Rain = 0
KMC1 071249Z 04006KT 17/17 A3015 RMK A01 T01670167  RH  100%=      5-min Rain = 0
KMC1 071250Z 04006KT 17/17 A3016 RMK A01 T01670167  RH  100%=      5-min Rain = 0
KMC1 071251Z 04005KT 17/17 A3016 RMK A01 T01670167  RH  100%=      5-min Rain = 0
KMC1 071252Z 04005KT 17/17 A3016 RMK A01 T01670167  RH  100%=      5-min Rain = 0
KMC1 071253Z 04005KT 17/17 A3016 RMK A01 T01680168  RH  100%=      5-min Rain = 0
KMC1 071254Z 03005KT 17/17 A3016 RMK A01 T01670168  RH  100%=      5-min Rain = 0
KMC1 071255Z 03004KT 17/17 A3016 RMK A01 T01680168  RH  100%=      5-min Rain = 0
KMC1 071256Z 03006KT 17/17 A3017 RMK A01 T01670168  RH  100%=      5-min Rain = 0
KMC1 071257Z 03006KT 17/17 A3017 RMK A01 T01670168  RH  100%=      5-min Rain = 0
KMC1 071258Z 03006KT 17/17 A3017 RMK A01 T01680168  RH  100%=      5-min Rain = 0
KMC1 071259Z 03007KT 17/17 A3017 RMK A01 T01680168  RH  100%=      5-min Rain = 0
KMC1 071300Z 02006KT 17/17 A3017 RMK A01 T01680168  RH  100%=      5-min Rain = 0
KMC1 071301Z 02008KT 17/17 A3017 RMK A01 T01680168  RH  100%=      5-min Rain = 0
KMC1 071302Z 02007KT 17/17 A3017 RMK A01 T01680168  RH  100%=      5-min Rain = 0
KMC1 071303Z 02008KT 17/17 A3017 RMK A01 T01680168  RH  100%=      5-min Rain = 0
KMC1 071304Z 02008KT 17/17 A3018 RMK A01 T01680168  RH  100%=      5-min Rain = 0
KMC1 071305Z 02008KT 17/17 A3018 RMK A01 T01670168  RH  100%=      5-min Rain = 0
KMC1 071306Z 02010KT 17/17 A3018 RMK A01 T01670167  RH  100%=      5-min Rain = 0
KMC1 071307Z 01008KT 17/17 A3018 RMK A01 T01670167  RH  100%=      5-min Rain = 0
KMC1 071308Z 02008G13KT 17/17 A3018 RMK A01 T01670167  RH  100%=      5-min Rain = 0
KMC1 071309Z 02009KT 17/17 A3018 RMK A01 T01670167  RH  100%=      5-min Rain = 0
KMC1 071310Z 01008KT 17/17 A3019 RMK A01 T01660167  RH  100%=      5-min Rain = 0
KMC1 071311Z 02010KT 17/17 A3019 RMK A01 T01660166  RH  100%=      5-min Rain = 0
KMC1 071312Z 01007KT 17/17 A3019 RMK A01 T01660166  RH  100%=      5-min Rain = 0
KMC1 071313Z 01005KT 17/17 A3019 RMK A01 T01660166  RH  100%=      5-min Rain = 0
KMC1 071314Z 01008KT 17/17 A3019 RMK A01 T01660166  RH  100%=      5-min Rain = 0
KMC1 071315Z 02008KT 17/17 A3019 RMK A01 T01650165  RH  100%=      5-min Rain = 0
KMC1 071316Z 01011KT 17/17 A3019 RMK A01 T01650165  RH  100%=      5-min Rain = 0
KMC1 071317Z 01008KT 16/16 A3019 RMK A01 T01640164  RH  100%=      5-min Rain = 0
KMC1 071318Z 01007KT 16/16 A3019 RMK A01 T01640163  RH  100%=      5-min Rain = 0
KMC1 071319Z 01008KT 16/16 A3019 RMK A01 T01640163  RH  100%=      5-min Rain = 0
KMC1 071320Z 02007KT 16/16 A3019 RMK A01 T01640163  RH  100%=      5-min Rain = 0
KMC1 071321Z 02007KT 16/16 A3019 RMK A01 T01640163  RH  100%=      5-min Rain = 0
KMC1 071322Z 02008KT 16/16 A3019 RMK A01 T01630162  RH  100%=      5-min Rain = 0
KMC1 071323Z 02010KT 16/16 A3019 RMK A01 T01630162  RH  100%=      5-min Rain = 0
KMC1 071324Z 01008KT 16/16 A3019 RMK A01 T01630162  RH  099%=      5-min Rain = 0
KMC1 071325Z 01007KT 16/16 A3019 RMK A01 T01620161  RH  099%=      5-min Rain = 0
KMC1 071326Z 01009KT 16/16 A3019 RMK A01 T01620161  RH  099%=      5-min Rain = 0
KMC1 071327Z 02009KT 16/16 A3019 RMK A01 T01620161  RH  099%=      5-min Rain = 0
KMC1 071328Z 02009KT 16/16 A3019 RMK A01 T01620161  RH  099%=      5-min Rain = 0
KMC1 071329Z 02008KT 16/16 A3019 RMK A01 T01610160  RH  099%=      5-min Rain = 0
KMC1 071330Z 02008KT 16/16 A3019 RMK A01 T01620161  RH  099%=      5-min Rain = 0
KMC1 071331Z 02010KT 16/16 A3019 RMK A01 T01620161  RH  099%=      5-min Rain = 0
KMC1 071332Z 03010KT 16/16 A3019 RMK A01 T01610160  RH  099%=      5-min Rain = 0
KMC1 071333Z 02008KT 16/16 A3019 RMK A01 T01610160  RH  099%=      5-min Rain = 0
KMC1 071334Z 02008KT 16/16 A3019 RMK A01 T01610160  RH  099%=      5-min Rain = 0
KMC1 071335Z 02009KT 16/16 A3019 RMK A01 T01610160  RH  099%=      5-min Rain = 0
KMC1 071336Z 02009KT 16/16 A3019 RMK A01 T01610160  RH  099%=      5-min Rain = 0
KMC1 071337Z 02010KT 16/16 A3019 RMK A01 T01610159  RH  099%=      5-min Rain = 0
KMC1 071338Z 02009KT 16/16 A3019 RMK A01 T01610159  RH  099%=      5-min Rain = 0
KMC1 071339Z 03010KT 16/16 A302 RMK A01 T01610159  RH  099%=      5-min Rain = 0
KMC1 071340Z 03010KT 16/16 A302 RMK A01 T01600158  RH  099%=      5-min Rain = 0
KMC1 071341Z 03009KT 16/16 A302 RMK A01 T01600158  RH  099%=      5-min Rain = 0
KMC1 071342Z 02009KT 16/16 A302 RMK A01 T01600158  RH  099%=      5-min Rain = 0
KMC1 071343Z 02007KT 16/16 A302 RMK A01 T01600158  RH  098%=      5-min Rain = 0
KMC1 071344Z 03009KT 16/16 A302 RMK A01 T01600158  RH  098%=      5-min Rain = 0
KMC1 071345Z 02007KT 16/16 A302 RMK A01 T01600158  RH  098%=      5-min Rain = 0
KMC1 071346Z 02007KT 16/16 A302 RMK A01 T01600158  RH  098%=      5-min Rain = 0
KMC1 071347Z 03007KT 16/16 A302 RMK A01 T01600158  RH  098%=      5-min Rain = 0
KMC1 071348Z 03009KT 16/16 A3021 RMK A01 T01600158  RH  098%=      5-min Rain = 0
KMC1 071349Z 02006KT 16/16 A3021 RMK A01 T01600157  RH  098%=      5-min Rain = 0
KMC1 071350Z 02010KT 16/16 A3021 RMK A01 T01600157  RH  098%=      5-min Rain = 0
KMC1 071351Z 02011KT 16/16 A3021 RMK A01 T01600157  RH  098%=      5-min Rain = 0
KMC1 071352Z 02010KT 16/16 A3021 RMK A01 T01600156  RH  098%=      5-min Rain = 0
KMC1 071353Z 03008KT 16/16 A3021 RMK A01 T01600156  RH  098%=      5-min Rain = 0
KMC1 071354Z 02010KT 16/16 A3021 RMK A01 T01600156  RH  098%=      5-min Rain = 0
KMC1 071355Z 02008KT 16/16 A3021 RMK A01 T01600156  RH  098%=      5-min Rain = 0
KMC1 071356Z 02009KT 16/16 A3021 RMK A01 T01600156  RH  098%=      5-min Rain = 0
KMC1 071357Z 02010KT 16/16 A3021 RMK A01 T01600156  RH  097%=      5-min Rain = 0
KMC1 071358Z 02009KT 16/16 A3021 RMK A01 T01600155  RH  097%=      5-min Rain = 0
KMC1 071359Z 02009KT 16/16 A3021 RMK A01 T01600155  RH  097%=      5-min Rain = 0
KMC1 071400Z 03009KT 16/16 A3021 RMK A01 T01600155  RH  097%=      5-min Rain = 0
KMC1 071401Z 02011KT 16/16 A3021 RMK A01 T01600155  RH  097%=      5-min Rain = 0
KMC1 071402Z 01009KT 16/16 A3021 RMK A01 T01600155  RH  097%=      5-min Rain = 0
KMC1 071403Z 02009KT 16/16 A3021 RMK A01 T01600155  RH  097%=      5-min Rain = 0
KMC1 071404Z 02008KT 16/16 A3021 RMK A01 T01600155  RH  097%=      5-min Rain = 0
KMC1 071405Z 02008KT 16/16 A3021 RMK A01 T01600155  RH  097%=      5-min Rain = 0
KMC1 071406Z 01007KT 16/16 A3021 RMK A01 T01600155  RH  097%=      5-min Rain = 0
KMC1 071407Z 01008KT 16/16 A3021 RMK A01 T01600155  RH  097%=      5-min Rain = 0
KMC1 071408Z 01008KT 16/16 A3021 RMK A01 T01600155  RH  097%=      5-min Rain = 0
KMC1 071409Z 01007KT 16/16 A3021 RMK A01 T01600155  RH  097%=      5-min Rain = 0
KMC1 071410Z 01006KT 16/16 A3021 RMK A01 T01600155  RH  097%=      5-min Rain = 0
KMC1 071411Z 01010KT 16/16 A3021 RMK A01 T01600156  RH  097%=      5-min Rain = 0
KMC1 071412Z 01007KT 16/16 A3022 RMK A01 T01600155  RH  097%=      5-min Rain = 0
KMC1 071413Z 01008KT 16/16 A3022 RMK A01 T01590155  RH  097%=      5-min Rain = 0
KMC1 071414Z 01008KT 16/16 A3022 RMK A01 T01600155  RH  097%=      5-min Rain = 0
KMC1 071415Z 01008KT 16/16 A3022 RMK A01 T01600155  RH  097%=      5-min Rain = 0
KMC1 071416Z 01009KT 16/16 A3022 RMK A01 T01600155  RH  097%=      5-min Rain = 0
KMC1 071417Z 01009KT 16/16 A3021 RMK A01 T01600155  RH  097%=      5-min Rain = 0
KMC1 071418Z 02008KT 16/16 A3021 RMK A01 T01600155  RH  097%=      5-min Rain = 0
KMC1 071419Z 36014G25KT 16/15 A3022 RMK A01 T01590154  RH  097%=      5-min Rain = 0
KMC1 071420Z 34019G25KT 15/13 A3022 RMK A01 T01500126  RH  086%=      5-min Rain = 0
KMC1 071421Z 35017G22KT 13/11 A3023 RMK A01 T01320106  RH  084%=      5-min Rain = 0
KMC1 071422Z 35018G23KT 12/10 A3023 RMK A01 T01210100  RH  087%=      5-min Rain = 0
KMC1 071423Z 35016G21KT 11/10 A3023 RMK A01 T01130096  RH  089%=      5-min Rain = 0
KMC1 071424Z 35014G21KT 11/10 A3023 RMK A01 T01090097  RH  092%=      5-min Rain = 0
KMC1 071425Z 00012KT 11/10 A3023 RMK A01 T01060097  RH  094%=      5-min Rain = 0
KMC1 071426Z 35014KT 10/10 A3023 RMK A01 T01040096  RH  095%=      5-min Rain = 0
KMC1 071427Z 36011KT 10/10 A3023 RMK A01 T01030097  RH  096%=      5-min Rain = 0
KMC1 071428Z 36013G18KT 10/10 A3024 RMK A01 T01020097  RH  097%=      5-min Rain = 0
KMC1 071429Z 36015G22KT 10/10 A3024 RMK A01 T01010096  RH  097%=      5-min Rain = 0
KMC1 071430Z 36015KT 10/09 A3024 RMK A01 T00990094  RH  097%=      5-min Rain = 0
KMC1 071431Z 35014KT 10/09 A3024 RMK A01 T00980093  RH  097%=      5-min Rain = 0
KMC1 071432Z 36014KT 10/09 A3024 RMK A01 T00970093  RH  097%=      5-min Rain = 0
KMC1 071433Z 00012G17KT 10/09 A3025 RMK A01 T00960092  RH  097%=      5-min Rain = 0
KMC1 071434Z 35011G16KT 10/09 A3025 RMK A01 T00960093  RH  098%=      5-min Rain = 0
KMC1 071435Z 35011G17KT 10/09 A3025 RMK A01 T00960093  RH  098%=      5-min Rain = 0
KMC1 071436Z 36013G18KT 10/09 A3025 RMK A01 T00950092  RH  098%=      5-min Rain = 0
KMC1 071437Z 36013KT 09/09 A3025 RMK A01 T00940091  RH  098%=      5-min Rain = 0
KMC1 071438Z 00009KT 09/09 A3025 RMK A01 T00930090  RH  098%=      5-min Rain = 0
KMC1 071439Z 01009KT 09/09 A3026 RMK A01 T00930090  RH  098%=      5-min Rain = 0
KMC1 071440Z 00008KT 09/09 A3026 RMK A01 T00930090  RH  098%=      5-min Rain = 0
KMC1 071441Z 01009KT 09/09 A3026 RMK A01 T00920090  RH  098%=      5-min Rain = 0
KMC1 071442Z 01009KT 09/09 A3026 RMK A01 T00920090  RH  098%=      5-min Rain = 0
KMC1 071443Z 01008KT 09/09 A3027 RMK A01 T00930090  RH  098%=      5-min Rain = 0
KMC1 071444Z 01010KT 09/09 A3027 RMK A01 T00930090  RH  099%=      5-min Rain = 0
KMC1 071445Z 01011KT 09/09 A3027 RMK A01 T00920089  RH  098%=      5-min Rain = 0
KMC1 071446Z 01012KT 09/09 A3027 RMK A01 T00910089  RH  098%=      5-min Rain = 0
KMC1 071447Z 00011KT 09/09 A3027 RMK A01 T00910088  RH  098%=      5-min Rain = 0
KMC1 071448Z 00011G16KT 09/09 A3027 RMK A01 T00900088  RH  098%=      5-min Rain = 0
KMC1 071449Z 00017G27KT 09/09 A3028 RMK A01 T00900087  RH  098%=      5-min Rain = 0
KMC1 071450Z 36015KT 09/08 A3028 RMK A01 T00880083  RH  097%=      5-min Rain = 0
KMC1 071451Z 00014G22KT 09/08 A3028 RMK A01 T00870082  RH  097%=      5-min Rain = 0
KMC1 071452Z 36018KT 09/08 A3028 RMK A01 T00850080  RH  096%=      5-min Rain = 0
KMC1 071453Z 00017KT 08/08 A3028 RMK A01 T00840078  RH  096%=      5-min Rain = 0
KMC1 071454Z 00014KT 08/08 A3028 RMK A01 T00830078  RH  096%=      5-min Rain = 0
KMC1 071455Z 35015KT 08/08 A3028 RMK A01 T00830078  RH  096%=      5-min Rain = 0
KMC1 071456Z 35014KT 08/08 A3028 RMK A01 T00830078  RH  097%=      5-min Rain = 0
KMC1 071457Z 01013KT 08/08 A3028 RMK A01 T00830078  RH  097%=      5-min Rain = 0
KMC1 071458Z 01011G17KT 08/08 A3028 RMK A01 T00820077  RH  097%=      5-min Rain = 0
KMC1 071459Z 00012KT 08/08 A3029 RMK A01 T00820078  RH  097%=      5-min Rain = 0
KMC1 071500Z 00012G18KT 08/08 A3029 RMK A01 T00820077  RH  097%=      5-min Rain = 0
KMC1 071501Z 01010KT 08/08 A3029 RMK A01 T00810077  RH  097%=      5-min Rain = 0
KMC1 071502Z 01012G17KT 08/08 A3029 RMK A01 T00810077  RH  097%=      5-min Rain = 0
KMC1 071503Z 01008KT 08/08 A3029 RMK A01 T00800076  RH  097%=      5-min Rain = 0
KMC1 071504Z 01011KT 08/08 A3029 RMK A01 T00800076  RH  097%=      5-min Rain = 0
KMC1 071505Z 01010KT 08/08 A3029 RMK A01 T00800076  RH  098%=      5-min Rain = 0
KMC1 071506Z 36013KT 08/08 A3029 RMK A01 T00800076  RH  098%=      5-min Rain = 0
KMC1 071507Z 01015KT 08/08 A3029 RMK A01 T00790075  RH  097%=      5-min Rain = 0
KMC1 071508Z 01009KT 08/08 A3029 RMK A01 T00790075  RH  097%=      5-min Rain = 0
KMC1 071509Z 01009KT 08/08 A3029 RMK A01 T00790075  RH  098%=      5-min Rain = 0
KMC1 071510Z 01011KT 08/08 A303 RMK A01 T00790076  RH  098%=      5-min Rain = 0
KMC1 071511Z 02009KT 08/08 A303 RMK A01 T00790075  RH  098%=      5-min Rain = 0
KMC1 071512Z 02010G17KT 08/08 A303 RMK A01 T00790075  RH  098%=      5-min Rain = 0
KMC1 071513Z 02015KT 08/08 A303 RMK A01 T00790075  RH  098%=      5-min Rain = 0
KMC1 071514Z 01016KT 08/07 A303 RMK A01 T00780074  RH  097%=      5-min Rain = 0
KMC1 071515Z 02013KT 08/07 A303 RMK A01 T00780074  RH  097%=      5-min Rain = 0
KMC1 071516Z 02014KT 08/07 A303 RMK A01 T00780074  RH  097%=      5-min Rain = 0
KMC1 071517Z 02012G18KT 08/07 A303 RMK A01 T00780073  RH  097%=      5-min Rain = 0
KMC1 071518Z 03012KT 08/07 A303 RMK A01 T00770073  RH  097%=      5-min Rain = 0
KMC1 071519Z 02012KT 08/07 A303 RMK A01 T00770074  RH  097%=      5-min Rain = 0
KMC1 071520Z 02011KT 08/07 A303 RMK A01 T00770074  RH  097%=      5-min Rain = 0
KMC1 071521Z 02011KT 08/07 A303 RMK A01 T00770074  RH  098%=      5-min Rain = 0
KMC1 071522Z 02011KT 08/07 A303 RMK A01 T00780074  RH  098%=      5-min Rain = 0
KMC1 071523Z 02012KT 08/07 A303 RMK A01 T00780074  RH  098%=      5-min Rain = 0
KMC1 071524Z 02011G16KT 08/07 A303 RMK A01 T00780074  RH  098%=      5-min Rain = 0
KMC1 071525Z 02016KT 08/07 A303 RMK A01 T00780074  RH  098%=      5-min Rain = 0
KMC1 071526Z 02013G18KT 08/07 A303 RMK A01 T00770074  RH  098%=      5-min Rain = 0
KMC1 071527Z 02012G17KT 08/07 A3031 RMK A01 T00770074  RH  098%=      5-min Rain = 0
KMC1 071528Z 03011G17KT 08/07 A3031 RMK A01 T00770074  RH  098%=      5-min Rain = 0
KMC1 071529Z 01009KT 08/07 A3031 RMK A01 T00770074  RH  098%=      5-min Rain = 0
KMC1 071530Z 02007KT 08/07 A3031 RMK A01 T00770074  RH  098%=      5-min Rain = 0
KMC1 071531Z 02008KT 08/08 A3031 RMK A01 T00780075  RH  098%=      5-min Rain = 0
KMC1 071532Z 02011G17KT 08/08 A3031 RMK A01 T00780075  RH  098%=      5-min Rain = 0
KMC1 071533Z 02011KT 08/08 A3031 RMK A01 T00780075  RH  098%=      5-min Rain = 0
KMC1 071534Z 02008KT 08/08 A3031 RMK A01 T00770075  RH  098%=      5-min Rain = 0
KMC1 071535Z 01009KT 08/08 A3031 RMK A01 T00780075  RH  098%=      5-min Rain = 0
KMC1 071536Z 01008KT 08/08 A3032 RMK A01 T00780075  RH  098%=      5-min Rain = 0
KMC1 071537Z 02012KT 08/08 A3032 RMK A01 T00780075  RH  098%=      5-min Rain = 0
KMC1 071538Z 02008KT 08/08 A3032 RMK A01 T00780075  RH  098%=      5-min Rain = 0
KMC1 071539Z 01009KT 08/08 A3032 RMK A01 T00780075  RH  098%=      5-min Rain = 0
KMC1 071540Z 01007KT 08/08 A3032 RMK A01 T00780075  RH  098%=      5-min Rain = 0
KMC1 071541Z 02006KT 08/08 A3032 RMK A01 T00780076  RH  098%=      5-min Rain = 0
KMC1 071542Z 01008KT 08/08 A3032 RMK A01 T00780076  RH  099%=      5-min Rain = 0
KMC1 071543Z 01009KT 08/08 A3031 RMK A01 T00780076  RH  098%=      5-min Rain = 0
KMC1 071544Z 35007KT 08/08 A3031 RMK A01 T00780076  RH  098%=      5-min Rain = 0
KMC1 071545Z 36007KT 08/08 A3031 RMK A01 T00790076  RH  099%=      5-min Rain = 0
KMC1 071546Z 00007KT 08/08 A3031 RMK A01 T00790077  RH  099%=      5-min Rain = 0
KMC1 071547Z 00009KT 08/08 A3031 RMK A01 T00790077  RH  099%=      5-min Rain = 0
KMC1 071548Z 00008G13KT 08/08 A3031 RMK A01 T00790077  RH  099%=      5-min Rain = 0
KMC1 071549Z 35012KT 08/08 A3031 RMK A01 T00780076  RH  098%=      5-min Rain = 0
KMC1 071550Z 36008KT 08/08 A3031 RMK A01 T00780075  RH  098%=      5-min Rain = 0
KMC1 071551Z 35008KT 08/08 A3031 RMK A01 T00780076  RH  098%=      5-min Rain = 0
KMC1 071552Z 01008KT 08/08 A3031 RMK A01 T00780076  RH  099%=      5-min Rain = 0
KMC1 071553Z 35008KT 08/08 A3031 RMK A01 T00780076  RH  099%=      5-min Rain = 0
KMC1 071554Z 36010KT 08/08 A3031 RMK A01 T00780076  RH  099%=      5-min Rain = 0
KMC1 071555Z 35008KT 08/08 A3031 RMK A01 T00770075  RH  098%=      5-min Rain = 0
KMC1 071556Z 35010KT 08/08 A3031 RMK A01 T00770075  RH  098%=      5-min Rain = 0
KMC1 071557Z 35009KT 08/07 A3031 RMK A01 T00760073  RH  098%=      5-min Rain = 0
KMC1 071558Z 36009KT 08/07 A3031 RMK A01 T00760073  RH  098%=      5-min Rain = 0
KMC1 071559Z 35010KT 08/07 A3031 RMK A01 T00760073  RH  099%=      5-min Rain = 0
KMC1 071600Z 36012KT 08/07 A3031 RMK A01 T00760074  RH  099%=      5-min Rain = 0
KMC1 071601Z 00011KT 08/07 A3031 RMK A01 T00750073  RH  098%=      5-min Rain = 0
KMC1 071602Z 01010KT 08/07 A3031 RMK A01 T00750073  RH  099%=      5-min Rain = 0
KMC1 071603Z 01010KT 08/07 A3031 RMK A01 T00750073  RH  099%=      5-min Rain = 0
KMC1 071604Z 00010KT 07/07 A3031 RMK A01 T00740073  RH  099%=      5-min Rain = 0
KMC1 071605Z 01010KT 07/07 A3031 RMK A01 T00740073  RH  099%=      5-min Rain = 0
KMC1 071606Z 00009KT 08/07 A3031 RMK A01 T00750073  RH  099%=      5-min Rain = 0
KMC1 071607Z 00012KT 07/07 A303 RMK A01 T00740073  RH  099%=      5-min Rain = 0
KMC1 071608Z 00010KT 07/07 A303 RMK A01 T00740072  RH  099%=      5-min Rain = 0
KMC1 071609Z 00010KT 07/07 A303 RMK A01 T00740072  RH  099%=      5-min Rain = 0
KMC1 071610Z 01009KT 07/07 A303 RMK A01 T00740072  RH  099%=      5-min Rain = 0
KMC1 071611Z 01008KT 07/07 A3031 RMK A01 T00740072  RH  099%=      5-min Rain = 0
KMC1 071612Z 01011KT 07/07 A3031 RMK A01 T00740073  RH  099%=      5-min Rain = 0
KMC1 071613Z 01012KT 07/07 A3031 RMK A01 T00740072  RH  099%=      5-min Rain = 0
KMC1 071614Z 00010KT 07/07 A3031 RMK A01 T00730071  RH  099%=      5-min Rain = 0
KMC1 071615Z 00012KT 07/07 A3031 RMK A01 T00730071  RH  099%=      5-min Rain = 0
KMC1 071616Z 01013KT 07/07 A3031 RMK A01 T00730072  RH  099%=      5-min Rain = 0
KMC1 071617Z 01009KT 07/07 A3031 RMK A01 T00730072  RH  099%=      5-min Rain = 0
KMC1 071618Z 01007KT 07/07 A3031 RMK A01 T00740072  RH  099%=      5-min Rain = 0
KMC1 071619Z 01010G15KT 08/07 A3031 RMK A01 T00750073  RH  099%=      5-min Rain = 0
KMC1 071620Z 01012KT 08/07 A3031 RMK A01 T00750073  RH  099%=      5-min Rain = 0
KMC1 071621Z 01012KT 08/07 A3031 RMK A01 T00750073  RH  099%=      5-min Rain = 0
KMC1 071622Z 01010KT 07/07 A3031 RMK A01 T00740073  RH  099%=      5-min Rain = 0
KMC1 071623Z 01012KT 08/07 A3031 RMK A01 T00750073  RH  099%=      5-min Rain = 0
KMC1 071624Z 01011KT 07/07 A3031 RMK A01 T00740072  RH  098%=      5-min Rain = 0
KMC1 071625Z 01011KT 07/07 A3031 RMK A01 T00740072  RH  098%=      5-min Rain = 0
KMC1 071626Z 00013KT 07/07 A3031 RMK A01 T00730071  RH  098%=      5-min Rain = 0
KMC1 071627Z 35013KT 07/07 A3031 RMK A01 T00740071  RH  098%=      5-min Rain = 0
KMC1 071628Z 36014G19KT 07/07 A3031 RMK A01 T00720070  RH  098%=      5-min Rain = 0
KMC1 071629Z 01014KT 07/07 A303 RMK A01 T00720069  RH  098%=      5-min Rain = 0
KMC1 071630Z 01014KT 07/07 A303 RMK A01 T00710068  RH  098%=      5-min Rain = 0
KMC1 071631Z 01013KT 07/07 A303 RMK A01 T00710068  RH  098%=      5-min Rain = 0
KMC1 071632Z 01014KT 07/07 A303 RMK A01 T00710068  RH  098%=      5-min Rain = 0
KMC1 071633Z 01014KT 07/07 A303 RMK A01 T00700067  RH  098%=      5-min Rain = 0
KMC1 071634Z 02012KT 07/07 A303 RMK A01 T00690066  RH  098%=      5-min Rain = 0
KMC1 071635Z 02008KT 07/07 A3031 RMK A01 T00690066  RH  098%=      5-min Rain = 0
KMC1 071636Z 00008KT 07/07 A3031 RMK A01 T00700067  RH  098%=      5-min Rain = 0
KMC1 071637Z 00008KT 07/07 A3031 RMK A01 T00700068  RH  098%=      5-min Rain = 0
KMC1 071638Z 00012KT 07/07 A3031 RMK A01 T00710068  RH  098%=      5-min Rain = 0
KMC1 071639Z 35012KT 07/07 A3031 RMK A01 T00700067  RH  098%=      5-min Rain = 0
KMC1 071640Z 35012KT 07/07 A3031 RMK A01 T00690065  RH  098%=      5-min Rain = 0
KMC1 071641Z 36011KT 07/07 A3031 RMK A01 T00680065  RH  098%=      5-min Rain = 0
KMC1 071642Z 36009KT 07/07 A3031 RMK A01 T00680065  RH  098%=      5-min Rain = 0
KMC1 071643Z 36010KT 07/07 A3031 RMK A01 T00680065  RH  098%=      5-min Rain = 0
KMC1 071644Z 35011G16KT 07/07 A3031 RMK A01 T00680065  RH  098%=      5-min Rain = 0
KMC1 071645Z 00012KT 07/07 A3031 RMK A01 T00680065  RH  098%=      5-min Rain = 0
KMC1 071646Z 00009KT 07/06 A3031 RMK A01 T00680064  RH  098%=      5-min Rain = 0
KMC1 071647Z 35012KT 07/07 A3031 RMK A01 T00680065  RH  098%=      5-min Rain = 0
KMC1 071648Z 35011KT 07/07 A3031 RMK A01 T00680065  RH  098%=      5-min Rain = 0
KMC1 071649Z 36013KT 07/07 A3032 RMK A01 T00680065  RH  098%=      5-min Rain = 0
KMC1 071650Z 35013KT 07/06 A3032 RMK A01 T00670064  RH  097%=      5-min Rain = 0
KMC1 071651Z 36011KT 07/06 A3032 RMK A01 T00670063  RH  097%=      5-min Rain = 0
KMC1 071652Z 36012G17KT 07/06 A3032 RMK A01 T00670063  RH  097%=      5-min Rain = 0
KMC1 071653Z 36013KT 07/06 A3032 RMK A01 T00670063  RH  097%=      5-min Rain = 0
KMC1 071654Z 00013KT 07/06 A3032 RMK A01 T00660062  RH  097%=      5-min Rain = 0
KMC1 071655Z 36013KT 07/06 A3032 RMK A01 T00660062  RH  097%=      5-min Rain = 0
KMC1 071656Z 36011KT 07/06 A3032 RMK A01 T00660062  RH  097%=      5-min Rain = 0
KMC1 071657Z 00012G17KT 07/06 A3032 RMK A01 T00660062  RH  097%=      5-min Rain = 0
KMC1 071658Z 01011KT 07/06 A3032 RMK A01 T00660062  RH  097%=      5-min Rain = 0
KMC1 071659Z 01014KT 07/06 A3032 RMK A01 T00660062  RH  097%=      5-min Rain = 0
KMC1 071700Z 01013KT 07/06 A3032 RMK A01 T00660061  RH  097%=      5-min Rain = 0
KMC1 071701Z 01012KT 07/06 A3032 RMK A01 T00660061  RH  097%=      5-min Rain = 0
KMC1 071702Z 01010KT 07/06 A3032 RMK A01 T00660061  RH  096%=      5-min Rain = 0
KMC1 071703Z 00010KT 07/06 A3032 RMK A01 T00660061  RH  096%=      5-min Rain = 0
KMC1 071704Z 01011G16KT 07/06 A3032 RMK A01 T00670061  RH  096%=      5-min Rain = 0
KMC1 071705Z 01013KT 07/06 A3032 RMK A01 T00670061  RH  096%=      5-min Rain = 0
KMC1 071706Z 02011KT 07/06 A3032 RMK A01 T00670061  RH  096%=      5-min Rain = 0
KMC1 071707Z 02009KT 07/06 A3032 RMK A01 T00670061  RH  096%=      5-min Rain = 0
KMC1 071708Z 01009KT 07/06 A3032 RMK A01 T00680062  RH  096%=      5-min Rain = 0
KMC1 071709Z 02010KT 07/06 A3032 RMK A01 T00680063  RH  096%=      5-min Rain = 0
KMC1 071710Z 02010KT 07/06 A3032 RMK A01 T00680062  RH  096%=      5-min Rain = 0
KMC1 071711Z 02010KT 07/06 A3032 RMK A01 T00680062  RH  096%=      5-min Rain = 0
KMC1 071712Z 01009KT 07/06 A3032 RMK A01 T00680062  RH  096%=      5-min Rain = 0
KMC1 071713Z 01009KT 07/06 A3032 RMK A01 T00680062  RH  096%=      5-min Rain = 0
KMC1 071714Z 01007KT 07/06 A3032 RMK A01 T00680062  RH  096%=      5-min Rain = 0
KMC1 071715Z 01007KT 07/06 A3032 RMK A01 T00690063  RH  096%=      5-min Rain = 0
KMC1 071716Z 01009KT 07/06 A3032 RMK A01 T00690063  RH  096%=      5-min Rain = 0
KMC1 071717Z 00009KT 07/06 A3032 RMK A01 T00690063  RH  096%=      5-min Rain = 0
KMC1 071718Z 36010G15KT 07/06 A3032 RMK A01 T00690064  RH  096%=      5-min Rain = 0
KMC1 071719Z 35012KT 07/06 A3032 RMK A01 T00680063  RH  096%=      5-min Rain = 0
KMC1 071720Z 35011KT 07/06 A3032 RMK A01 T00670062  RH  096%=      5-min Rain = 0
KMC1 071721Z 35012KT 07/06 A3032 RMK A01 T00670062  RH  097%=      5-min Rain = 0
KMC1 071722Z 36011KT 07/06 A3032 RMK A01 T00660061  RH  097%=      5-min Rain = 0
KMC1 071723Z 35013KT 07/06 A3032 RMK A01 T00660062  RH  097%=      5-min Rain = 0
KMC1 071724Z 36012KT 07/06 A3032 RMK A01 T00650061  RH  097%=      5-min Rain = 0
KMC1 071725Z 00011KT 07/06 A3033 RMK A01 T00650061  RH  097%=      5-min Rain = 0
KMC1 071726Z 35012KT 07/06 A3033 RMK A01 T00650061  RH  097%=      5-min Rain = 0
KMC1 071727Z 35011KT 07/06 A3033 RMK A01 T00660062  RH  097%=      5-min Rain = 0
KMC1 071728Z 35010KT 07/06 A3033 RMK A01 T00670061  RH  097%=      5-min Rain = 0
KMC1 071729Z 35007KT 07/06 A3033 RMK A01 T00660061  RH  097%=      5-min Rain = 0
KMC1 071730Z 35010KT 07/06 A3033 RMK A01 T00670062  RH  097%=      5-min Rain = 0
KMC1 071731Z 36014KT 07/06 A3033 RMK A01 T00660061  RH  097%=      5-min Rain = 0
KMC1 071732Z 34015KT 06/06 A3033 RMK A01 T00630057  RH  096%=      5-min Rain = 0
KMC1 071733Z 34014KT 06/06 A3033 RMK A01 T00610055  RH  096%=      5-min Rain = 0
KMC1 071734Z 35011G16KT 06/05 A3033 RMK A01 T00600054  RH  096%=      5-min Rain = 0
KMC1 071735Z 35014KT 06/06 A3033 RMK A01 T00600055  RH  097%=      5-min Rain = 0
KMC1 071736Z 35015KT 06/06 A3033 RMK A01 T00600055  RH  096%=      5-min Rain = 0
KMC1 071737Z 35011KT 06/06 A3033 RMK A01 T00600055  RH  096%=      5-min Rain = 0
KMC1 071738Z 35014KT 06/06 A3033 RMK A01 T00600055  RH  097%=      5-min Rain = 0
KMC1 071739Z 35013G19KT 06/06 A3032 RMK A01 T00600055  RH  097%=      5-min Rain = 0
KMC1 071740Z 35012G17KT 06/06 A3032 RMK A01 T00600055  RH  097%=      5-min Rain = 0
KMC1 071741Z 36009KT 06/06 A3033 RMK A01 T00600056  RH  097%=      5-min Rain = 0
KMC1 071742Z 00011G18KT 06/06 A3033 RMK A01 T00610057  RH  097%=      5-min Rain = 0
KMC1 071743Z 00014KT 06/06 A3033 RMK A01 T00610057  RH  097%=      5-min Rain = 0
KMC1 071744Z 01014G21KT 06/06 A3033 RMK A01 T00610056  RH  096%=      5-min Rain = 0
KMC1 071745Z 00012KT 06/06 A3033 RMK A01 T00600055  RH  096%=      5-min Rain = 0
KMC1 071746Z 00016G21KT 06/06 A3033 RMK A01 T00610055  RH  096%=      5-min Rain = 0
KMC1 071747Z 00016KT 06/05 A3033 RMK A01 T00600054  RH  096%=      5-min Rain = 0
KMC1 071748Z 00013KT 06/05 A3033 RMK A01 T00590054  RH  096%=      5-min Rain = 0
KMC1 071749Z 00013KT 06/05 A3033 RMK A01 T00600054  RH  096%=      5-min Rain = 0
KMC1 071750Z 01010KT 06/06 A3033 RMK A01 T00600055  RH  097%=      5-min Rain = 0
KMC1 071751Z 35012KT 06/06 A3033 RMK A01 T00600055  RH  097%=      5-min Rain = 0
KMC1 071752Z 36011KT 06/06 A3032 RMK A01 T00600055  RH  097%=      5-min Rain = 0
KMC1 071753Z 35010KT 06/06 A3032 RMK A01 T00600056  RH  097%=      5-min Rain = 0
KMC1 071754Z 36013KT 06/06 A3033 RMK A01 T00600056  RH  097%=      5-min Rain = 0
KMC1 071755Z 01013G21KT 06/05 A3032 RMK A01 T00590054  RH  096%=      5-min Rain = 0
KMC1 071756Z 01017KT 06/05 A3032 RMK A01 T00580052  RH  096%=      5-min Rain = 0
KMC1 071757Z 01017KT 06/05 A3032 RMK A01 T00570049  RH  094%=      5-min Rain = 0
KMC1 071758Z 01013G19KT 06/05 A3032 RMK A01 T00560047  RH  094%=      5-min Rain = 0
KMC1 071759Z 01014KT 06/05 A3032 RMK A01 T00560047  RH  094%=      5-min Rain = 0
KMC1 071800Z 02015KT 06/05 A3032 RMK A01 T00560047  RH  094%=      5-min Rain = 0
KMC1 071801Z 01014KT 06/05 A3032 RMK A01 T00560047  RH  094%=      5-min Rain = 0
KMC1 071802Z 01012KT 06/05 A3032 RMK A01 T00560047  RH  094%=      5-min Rain = 0
KMC1 071803Z 00015G20KT 06/05 A3032 RMK A01 T00560047  RH  094%=      5-min Rain = 0
KMC1 071804Z 00012G19KT 06/05 A3032 RMK A01 T00560047  RH  094%=      5-min Rain = 0
KMC1 071805Z 00013KT 06/05 A3032 RMK A01 T00550047  RH  095%=      5-min Rain = 0
KMC1 071806Z 01014G19KT 06/05 A3032 RMK A01 T00560048  RH  095%=      5-min Rain = 0
KMC1 071807Z 01016KT 06/05 A3032 RMK A01 T00550047  RH  094%=      5-min Rain = 0
KMC1 071808Z 36015KT 06/05 A3032 RMK A01 T00550047  RH  094%=      5-min Rain = 0
KMC1 071809Z 35014KT 06/05 A3032 RMK A01 T00560047  RH  094%=      5-min Rain = 0
KMC1 071810Z 00012KT 06/05 A3032 RMK A01 T00550047  RH  094%=      5-min Rain = 0
KMC1 071811Z 35013KT 06/05 A3032 RMK A01 T00550047  RH  094%=      5-min Rain = 0
KMC1 071812Z 36012KT 06/05 A3032 RMK A01 T00550048  RH  095%=      5-min Rain = 0
KMC1 071813Z 36011KT 06/05 A3032 RMK A01 T00550047  RH  095%=      5-min Rain = 0
KMC1 071814Z 01007G13KT 06/05 A3032 RMK A01 T00560049  RH  095%=      5-min Rain = 0
KMC1 071815Z 01014KT 06/05 A3032 RMK A01 T00570049  RH  095%=      5-min Rain = 0
KMC1 071816Z 01011G17KT 06/05 A3032 RMK A01 T00560048  RH  094%=      5-min Rain = 0
KMC1 071817Z 01010G16KT 06/05 A3032 RMK A01 T00560048  RH  094%=      5-min Rain = 0
KMC1 071818Z 01012G19KT 06/05 A3032 RMK A01 T00560048  RH  094%=      5-min Rain = 0
KMC1 071819Z 02014KT 06/05 A3032 RMK A01 T00570048  RH  094%=      5-min Rain = 0
KMC1 071820Z 01012KT 06/05 A3032 RMK A01 T00560047  RH  094%=      5-min Rain = 0
KMC1 071821Z 01011KT 06/05 A3032 RMK A01 T00560047  RH  094%=      5-min Rain = 0
KMC1 071822Z 01010KT 06/05 A3032 RMK A01 T00560048  RH  094%=      5-min Rain = 0
KMC1 071823Z 36008KT 06/05 A3032 RMK A01 T00570049  RH  095%=      5-min Rain = 0
KMC1 071824Z 36010KT 06/05 A3032 RMK A01 T00580051  RH  095%=      5-min Rain = 0
KMC1 071825Z 35008KT 06/05 A3032 RMK A01 T00580051  RH  095%=      5-min Rain = 0
KMC1 071826Z 35011KT 06/05 A3032 RMK A01 T00580051  RH  095%=      5-min Rain = 0
KMC1 071827Z 35012KT 06/05 A3032 RMK A01 T00570050  RH  095%=      5-min Rain = 0
KMC1 071828Z 34013KT 06/05 A3032 RMK A01 T00560048  RH  095%=      5-min Rain = 0
KMC1 071829Z 36013KT 06/05 A3032 RMK A01 T00550048  RH  095%=      5-min Rain = 0
KMC1 071830Z 35014KT 06/05 A3032 RMK A01 T00550048  RH  095%=      5-min Rain = 0
KMC1 071831Z 35012G17KT 06/05 A3032 RMK A01 T00550048  RH  096%=      5-min Rain = 0
KMC1 071832Z 36012KT 06/05 A3032 RMK A01 T00550048  RH  096%=      5-min Rain = 0
KMC1 071833Z 35012KT 05/05 A3032 RMK A01 T00540048  RH  096%=      5-min Rain = 0
KMC1 071834Z 35014G19KT 05/05 A3032 RMK A01 T00540048  RH  096%=      5-min Rain = 0
KMC1 071835Z 36014KT 05/05 A3032 RMK A01 T00530047  RH  096%=      5-min Rain = 0
KMC1 071836Z 00013KT 05/05 A3032 RMK A01 T00530047  RH  096%=      5-min Rain = 0
KMC1 071837Z 36012G17KT 05/05 A3032 RMK A01 T00520046  RH  096%=      5-min Rain = 0
KMC1 071838Z 35012KT 05/05 A3032 RMK A01 T00520047  RH  096%=      5-min Rain = 0
KMC1 071839Z 36012G17KT 05/05 A3032 RMK A01 T00520047  RH  097%=      5-min Rain = 0
KMC1 071840Z 00012G17KT 05/05 A3032 RMK A01 T00520047  RH  097%=      5-min Rain = 0
KMC1 071841Z 36013KT 05/05 A3032 RMK A01 T00530048  RH  097%=      5-min Rain = 0
KMC1 071842Z 36014G19KT 05/05 A3032 RMK A01 T00520047  RH  096%=      5-min Rain = 0
KMC1 071843Z 35014KT 05/05 A3032 RMK A01 T00520046  RH  096%=      5-min Rain = 0
KMC1 071844Z 35013KT 05/05 A3032 RMK A01 T00520046  RH  096%=      5-min Rain = 0
KMC1 071845Z 35014G22KT 05/05 A3032 RMK A01 T00510045  RH  096%=      5-min Rain = 0
KMC1 071846Z 36015KT 05/05 A3033 RMK A01 T00510045  RH  095%=      5-min Rain = 0
KMC1 071847Z 36015G20KT 05/04 A3033 RMK A01 T00510044  RH  095%=      5-min Rain = 0
KMC1 071848Z 35012KT 05/04 A3033 RMK A01 T00510043  RH  095%=      5-min Rain = 0
KMC1 071849Z 36016KT 05/04 A3033 RMK A01 T00510043  RH  095%=      5-min Rain = 0
KMC1 071850Z 36015G20KT 05/04 A3033 RMK A01 T00510041  RH  094%=      5-min Rain = 0
KMC1 071851Z 35016KT 05/04 A3033 RMK A01 T00500041  RH  094%=      5-min Rain = 0
KMC1 071852Z 35013G18KT 05/04 A3033 RMK A01 T00490041  RH  094%=      5-min Rain = 0
KMC1 071853Z 35016KT 05/04 A3033 RMK A01 T00500042  RH  094%=      5-min Rain = 0
KMC1 071854Z 35011G19KT 05/04 A3033 RMK A01 T00500042  RH  094%=      5-min Rain = 0
KMC1 071855Z 35013G18KT 05/04 A3033 RMK A01 T00500042  RH  094%=      5-min Rain = 0
KMC1 071856Z 35012G17KT 05/04 A3033 RMK A01 T00510042  RH  094%=      5-min Rain = 0
KMC1 071857Z 00011G16KT 05/04 A3032 RMK A01 T00500042  RH  094%=      5-min Rain = 0
KMC1 071858Z 36013G18KT 05/04 A3032 RMK A01 T00500042  RH  094%=      5-min Rain = 0
KMC1 071859Z 36015KT 05/04 A3032 RMK A01 T00500041  RH  094%=      5-min Rain = 0
KMC1 071900Z 00015KT 05/04 A3033 RMK A01 T00500041  RH  094%=      5-min Rain = 0
KMC1 071901Z 36013KT 05/04 A3032 RMK A01 T00490041  RH  094%=      5-min Rain = 0
KMC1 071902Z 01013KT 05/04 A3032 RMK A01 T00500041  RH  094%=      5-min Rain = 0
KMC1 071903Z 36013KT 05/04 A3032 RMK A01 T00490040  RH  094%=      5-min Rain = 0
KMC1 071904Z 35012G17KT 05/04 A3032 RMK A01 T00490040  RH  094%=      5-min Rain = 0
KMC1 071905Z 35013KT 05/04 A3032 RMK A01 T00490041  RH  094%=      5-min Rain = 0
KMC1 071906Z 36011KT 05/04 A3032 RMK A01 T00490041  RH  094%=      5-min Rain = 0
KMC1 071907Z 35013KT 05/04 A3032 RMK A01 T00490041  RH  095%=      5-min Rain = 0
KMC1 071908Z 35016KT 05/04 A3032 RMK A01 T00480041  RH  095%=      5-min Rain = 0
KMC1 071909Z 34016KT 05/04 A3032 RMK A01 T00470039  RH  094%=      5-min Rain = 0
KMC1 071910Z 34014KT 05/04 A3032 RMK A01 T00460038  RH  094%=      5-min Rain = 0
KMC1 071911Z 35013KT 05/04 A3032 RMK A01 T00460038  RH  095%=      5-min Rain = 0
KMC1 071912Z 34011G17KT 05/04 A3032 RMK A01 T00450038  RH  095%=      5-min Rain = 0
KMC1 071913Z 34009KT 05/04 A3032 RMK A01 T00460039  RH  095%=      5-min Rain = 0
KMC1 071914Z 35013KT 05/04 A3032 RMK A01 T00460039  RH  096%=      5-min Rain = 0
KMC1 071915Z 00014KT 05/04 A3032 RMK A01 T00460039  RH  095%=      5-min Rain = 0
KMC1 071916Z 34013KT 05/04 A3032 RMK A01 T00460039  RH  095%=      5-min Rain = 0
KMC1 071917Z 35011G17KT 05/04 A3032 RMK A01 T00460039  RH  095%=      5-min Rain = 0
KMC1 071918Z 35012G17KT 05/04 A3032 RMK A01 T00460040  RH  096%=      5-min Rain = 0
KMC1 071919Z 35015G20KT 05/04 A3032 RMK A01 T00460040  RH  096%=      5-min Rain = 0
KMC1 071920Z 36014KT 05/04 A3032 RMK A01 T00460039  RH  095%=      5-min Rain = 0
KMC1 071921Z 01013KT 05/04 A3032 RMK A01 T00460039  RH  095%=      5-min Rain = 0
KMC1 071922Z 35013KT 05/04 A3032 RMK A01 T00460039  RH  096%=      5-min Rain = 0
KMC1 071923Z 36013KT 05/04 A3032 RMK A01 T00460039  RH  096%=      5-min Rain = 0
KMC1 071924Z 35011KT 05/04 A3032 RMK A01 T00450039  RH  096%=      5-min Rain = 0
KMC1 071925Z 35012KT 05/04 A3032 RMK A01 T00450039  RH  096%=      5-min Rain = 0
KMC1 071926Z 34010G16KT 05/04 A3032 RMK A01 T00450039  RH  096%=      5-min Rain = 0
KMC1 071927Z 35013KT 05/04 A3032 RMK A01 T00450039  RH  096%=      5-min Rain = 0
KMC1 071928Z 35012KT 05/04 A3031 RMK A01 T00450040  RH  096%=      5-min Rain = 0
KMC1 071929Z 35010KT 05/04 A3031 RMK A01 T00450040  RH  096%=      5-min Rain = 0
KMC1 071930Z 00009KT 05/04 A3031 RMK A01 T00450040  RH  096%=      5-min Rain = 0
KMC1 071931Z 02008G14KT 05/04 A3031 RMK A01 T00450040  RH  096%=      5-min Rain = 0
KMC1 071932Z 01011KT 05/04 A3031 RMK A01 T00460040  RH  096%=      5-min Rain = 0
KMC1 071933Z 36010KT 05/04 A3031 RMK A01 T00460040  RH  096%=      5-min Rain = 0
KMC1 071934Z 35008KT 05/04 A3031 RMK A01 T00460040  RH  096%=      5-min Rain = 0
KMC1 071935Z 35011G18KT 05/04 A3031 RMK A01 T00460041  RH  096%=      5-min Rain = 0
KMC1 071936Z 00014KT 05/04 A3031 RMK A01 T00470040  RH  095%=      5-min Rain = 0
KMC1 071937Z 01013KT 05/04 A3031 RMK A01 T00470038  RH  094%=      5-min Rain = 0
KMC1 071938Z 01009KT 05/04 A3031 RMK A01 T00470037  RH  093%=      5-min Rain = 0
KMC1 071939Z 01012KT 05/04 A3031 RMK A01 T00470037  RH  093%=      5-min Rain = 0
KMC1 071940Z 01009KT 05/04 A3031 RMK A01 T00480037  RH  093%=      5-min Rain = 0
KMC1 071941Z 01013KT 05/04 A3031 RMK A01 T00490037  RH  092%=      5-min Rain = 0
KMC1 071942Z 01010KT 05/04 A3031 RMK A01 T00480036  RH  092%=      5-min Rain = 0
KMC1 071943Z 01010G15KT 05/04 A3031 RMK A01 T00490036  RH  092%=      5-min Rain = 0
KMC1 071944Z 01010KT 05/04 A3031 RMK A01 T00490037  RH  092%=      5-min Rain = 0
KMC1 071945Z 01015KT 05/04 A3031 RMK A01 T00490037  RH  092%=      5-min Rain = 0
KMC1 071946Z 01011G16KT 05/04 A3031 RMK A01 T00490036  RH  091%=      5-min Rain = 0
KMC1 071947Z 01013KT 05/04 A3031 RMK A01 T00490036  RH  092%=      5-min Rain = 0
KMC1 071948Z 00011KT 05/04 A3031 RMK A01 T00480035  RH  091%=      5-min Rain = 0
KMC1 071949Z 01010KT 05/04 A3031 RMK A01 T00480036  RH  092%=      5-min Rain = 0
KMC1 071950Z 01012KT 05/04 A3031 RMK A01 T00480036  RH  092%=      5-min Rain = 0
KMC1 071951Z 36009KT 05/04 A3031 RMK A01 T00480036  RH  092%=      5-min Rain = 0
KMC1 071952Z 35009KT 05/04 A3031 RMK A01 T00480037  RH  092%=      5-min Rain = 0
KMC1 071953Z 35012KT 05/04 A3031 RMK A01 T00490038  RH  092%=      5-min Rain = 0
KMC1 071954Z 35012KT 05/04 A3031 RMK A01 T00480036  RH  092%=      5-min Rain = 0
KMC1 071955Z 35010KT 05/04 A3031 RMK A01 T00480036  RH  092%=      5-min Rain = 0
KMC1 071956Z 35009G14KT 05/04 A3031 RMK A01 T00470036  RH  092%=      5-min Rain = 0
KMC1 071957Z 34012KT 05/04 A3031 RMK A01 T00470035  RH  092%=      5-min Rain = 0
KMC1 071958Z 34010KT 05/03 A3031 RMK A01 T00460034  RH  092%=      5-min Rain = 0
KMC1 071959Z 35008G13KT 05/03 A3031 RMK A01 T00460034  RH  092%=      5-min Rain = 0
KMC1 072000Z 35009KT 05/04 A3031 RMK A01 T00460035  RH  092%=      5-min Rain = 0
KMC1 072001Z 34010KT 05/04 A3031 RMK A01 T00470036  RH  093%=      5-min Rain = 0
KMC1 072002Z 35011KT 05/04 A3031 RMK A01 T00470036  RH  092%=      5-min Rain = 0
KMC1 072003Z 34011KT 05/04 A3031 RMK A01 T00470035  RH  092%=      5-min Rain = 0
KMC1 072004Z 00010KT 05/04 A3031 RMK A01 T00470035  RH  092%=      5-min Rain = 0
KMC1 072005Z 36010G16KT 05/04 A3031 RMK A01 T00480037  RH  093%=      5-min Rain = 0
KMC1 072006Z 36013KT 05/04 A3032 RMK A01 T00480036  RH  092%=      5-min Rain = 0
KMC1 072007Z 00012G17KT 05/03 A3031 RMK A01 T00470034  RH  091%=      5-min Rain = 0
KMC1 072008Z 01012KT 05/03 A3031 RMK A01 T00460034  RH  092%=      5-min Rain = 0
KMC1 072009Z 01012G17KT 05/03 A3031 RMK A01 T00460033  RH  092%=      5-min Rain = 0
KMC1 072010Z 01011KT 05/03 A3031 RMK A01 T00460034  RH  092%=      5-min Rain = 0
KMC1 072011Z 01010KT 05/03 A3031 RMK A01 T00460034  RH  092%=      5-min Rain = 0
KMC1 072012Z 00013KT 05/04 A3031 RMK A01 T00460035  RH  092%=      5-min Rain = 0
KMC1 072013Z 00012KT 05/03 A3031 RMK A01 T00460034  RH  092%=      5-min Rain = 0
KMC1 072014Z 36012KT 05/03 A3031 RMK A01 T00470034  RH  092%=      5-min Rain = 0
KMC1 072015Z 00012KT 05/03 A3031 RMK A01 T00470034  RH  092%=      5-min Rain = 0
KMC1 072016Z 01012KT 05/03 A3031 RMK A01 T00470034  RH  091%=      5-min Rain = 0
KMC1 072017Z 01012KT 05/03 A3032 RMK A01 T00470034  RH  092%=      5-min Rain = 0
KMC1 072018Z 36011KT 05/04 A3032 RMK A01 T00470035  RH  092%=      5-min Rain = 0
KMC1 072019Z 36011KT 05/04 A3032 RMK A01 T00470035  RH  092%=      5-min Rain = 0
KMC1 072020Z 36014G19KT 05/03 A3032 RMK A01 T00460034  RH  092%=      5-min Rain = 0
KMC1 072021Z 35012KT 05/03 A3032 RMK A01 T00460034  RH  092%=      5-min Rain = 0
KMC1 072022Z 35012KT 05/03 A3032 RMK A01 T00460034  RH  092%=      5-min Rain = 0
KMC1 072023Z 35008KT 05/04 A3032 RMK A01 T00460035  RH  092%=      5-min Rain = 0
KMC1 072024Z 34007KT 05/04 A3032 RMK A01 T00470037  RH  093%=      5-min Rain = 0
KMC1 072025Z 35008KT 05/04 A3032 RMK A01 T00480038  RH  093%=      5-min Rain = 0
KMC1 072026Z 35009KT 05/04 A3032 RMK A01 T00480038  RH  093%=      5-min Rain = 0
KMC1 072027Z 35009KT 05/04 A3032 RMK A01 T00480037  RH  093%=      5-min Rain = 0
KMC1 072028Z 35010KT 05/04 A3032 RMK A01 T00480037  RH  093%=      5-min Rain = 0
KMC1 072029Z 36010KT 05/04 A3032 RMK A01 T00480037  RH  092%=      5-min Rain = 0
KMC1 072030Z 00011KT 05/04 A3032 RMK A01 T00480036  RH  092%=      5-min Rain = 0
KMC1 072031Z 35009KT 05/04 A3032 RMK A01 T00480037  RH  093%=      5-min Rain = 0
KMC1 072032Z 34010KT 05/04 A3032 RMK A01 T00480037  RH  093%=      5-min Rain = 0
KMC1 072033Z 36008KT 05/04 A3031 RMK A01 T00470036  RH  092%=      5-min Rain = 0
KMC1 072034Z 35008KT 05/04 A3031 RMK A01 T00470037  RH  093%=      5-min Rain = 0
KMC1 072035Z 35008KT 05/04 A3031 RMK A01 T00470037  RH  093%=      5-min Rain = 0
KMC1 072036Z 34007KT 05/04 A3031 RMK A01 T00470037  RH  094%=      5-min Rain = 0
KMC1 072037Z 35011G16KT 05/04 A3031 RMK A01 T00470037  RH  094%=      5-min Rain = 0
KMC1 072038Z 00012KT 05/04 A3031 RMK A01 T00470037  RH  094%=      5-min Rain = 0
KMC1 072039Z 35012KT 05/04 A3031 RMK A01 T00460036  RH  093%=      5-min Rain = 0
KMC1 072040Z 00010KT 05/04 A3031 RMK A01 T00450036  RH  094%=      5-min Rain = 0
KMC1 072041Z 35010KT 05/04 A3031 RMK A01 T00450036  RH  094%=      5-min Rain = 0
KMC1 072042Z 35011KT 04/04 A3031 RMK A01 T00440036  RH  094%=      5-min Rain = 0
KMC1 072043Z 35011KT 04/04 A3031 RMK A01 T00440036  RH  095%=      5-min Rain = 0
KMC1 072044Z 36010KT 04/04 A3031 RMK A01 T00430036  RH  095%=      5-min Rain = 0
KMC1 072045Z 36012KT 04/04 A3031 RMK A01 T00430036  RH  096%=      5-min Rain = 0
KMC1 072046Z 36013KT 04/04 A3031 RMK A01 T00420036  RH  096%=      5-min Rain = 0.01
KMC1 072047Z 36009KT 04/04 A3031 RMK A01 T00410035  RH  096%=      5-min Rain = 0
KMC1 072048Z 36009G14KT 04/04 A3031 RMK A01 T00410036  RH  096%=      5-min Rain = 0
KMC1 072049Z 00013KT 04/04 A3031 RMK A01 T00410037  RH  097%=      5-min Rain = 0.01
KMC1 072050Z 01015KT 04/04 A3031 RMK A01 T00410036  RH  097%=      5-min Rain = 0
KMC1 072051Z 36012KT 04/04 A3031 RMK A01 T00400035  RH  097%=      5-min Rain = 0.01
KMC1 072052Z 35011G17KT 04/04 A3031 RMK A01 T00400036  RH  097%=      5-min Rain = 0
KMC1 072053Z 36011KT 04/04 A3031 RMK A01 T00400036  RH  097%=      5-min Rain = 0
KMC1 072054Z 36013KT 04/04 A3031 RMK A01 T00400036  RH  097%=      5-min Rain = 0.01
KMC1 072055Z 35015KT 04/04 A3031 RMK A01 T00390035  RH  097%=      5-min Rain = 0
KMC1 072056Z 00012G17KT 04/04 A3031 RMK A01 T00380035  RH  097%=      5-min Rain = 0.01
KMC1 072057Z 36010KT 04/04 A3031 RMK A01 T00380035  RH  098%=      5-min Rain = 0
KMC1 072058Z 35013KT 04/04 A3031 RMK A01 T00380035  RH  098%=      5-min Rain = 0
KMC1 072059Z 01011KT 04/04 A3031 RMK A01 T00380035  RH  098%=      5-min Rain = 0.01
KMC1 072100Z 36012KT 04/04 A3031 RMK A01 T00380036  RH  098%=      5-min Rain = 0
KMC1 072101Z 01011KT 04/04 A3031 RMK A01 T00390036  RH  098%=      5-min Rain = 0
KMC1 072102Z 36010KT 04/04 A3031 RMK A01 T00400037  RH  098%=      5-min Rain = 0
KMC1 072103Z 01011KT 04/04 A3031 RMK A01 T00390037  RH  098%=      5-min Rain = 0.01
KMC1 072104Z 00011KT 04/04 A3032 RMK A01 T00390037  RH  098%=      5-min Rain = 0
KMC1 072105Z 00010KT 04/04 A3031 RMK A01 T00390037  RH  098%=      5-min Rain = 0.01
KMC1 072106Z 00013KT 04/04 A3031 RMK A01 T00390036  RH  098%=      5-min Rain = 0
KMC1 072107Z 00011KT 04/04 A3031 RMK A01 T00390036  RH  098%=      5-min Rain = 0
KMC1 072108Z 00011KT 04/04 A3031 RMK A01 T00390036  RH  098%=      5-min Rain = 0
KMC1 072109Z 36012KT 04/04 A3031 RMK A01 T00390036  RH  098%=      5-min Rain = 0
KMC1 072110Z 35014KT 04/04 A3031 RMK A01 T00390036  RH  098%=      5-min Rain = 0.01
KMC1 072111Z 35014KT 04/04 A3031 RMK A01 T00390036  RH  098%=      5-min Rain = 0
KMC1 072112Z 36010KT 04/04 A3031 RMK A01 T00390036  RH  098%=      5-min Rain = 0
KMC1 072113Z 35011G16KT 04/04 A3032 RMK A01 T00390036  RH  098%=      5-min Rain = 0
KMC1 072114Z 35010KT 04/04 A3032 RMK A01 T00390037  RH  098%=      5-min Rain = 0
KMC1 072115Z 36010KT 04/04 A3032 RMK A01 T00400037  RH  098%=      5-min Rain = 0
KMC1 072116Z 36010KT 04/04 A3032 RMK A01 T00400037  RH  098%=      5-min Rain = 0.01
KMC1 072117Z 35008KT 04/04 A3032 RMK A01 T00400038  RH  098%=      5-min Rain = 0
KMC1 072118Z 36009G14KT 04/04 A3032 RMK A01 T00400038  RH  099%=      5-min Rain = 0
KMC1 072119Z 00009KT 04/04 A3033 RMK A01 T00400038  RH  098%=      5-min Rain = 0
KMC1 072120Z 35008KT 04/04 A3033 RMK A01 T00400038  RH  099%=      5-min Rain = 0
KMC1 072121Z 00008KT 04/04 A3033 RMK A01 T00400038  RH  099%=      5-min Rain = 0
KMC1 072122Z 01010KT 04/04 A3032 RMK A01 T00400038  RH  098%=      5-min Rain = 0
KMC1 072123Z 01010G15KT 04/04 A3032 RMK A01 T00390036  RH  098%=      5-min Rain = 0.01
KMC1 072124Z 01013KT 04/04 A3032 RMK A01 T00390036  RH  098%=      5-min Rain = 0
KMC1 072125Z 01010KT 04/04 A3032 RMK A01 T00390036  RH  098%=      5-min Rain = 0
KMC1 072126Z 00011KT 04/04 A3032 RMK A01 T00390036  RH  098%=      5-min Rain = 0
KMC1 072127Z 36010G15KT 04/04 A3032 RMK A01 T00390036  RH  098%=      5-min Rain = 0
KMC1 072128Z 00010KT 04/04 A3032 RMK A01 T00390036  RH  098%=      5-min Rain = 0
KMC1 072129Z 35008KT 04/04 A3032 RMK A01 T00390036  RH  098%=      5-min Rain = 0
KMC1 072130Z 35009KT 04/04 A3032 RMK A01 T00390037  RH  098%=      5-min Rain = 0
KMC1 072131Z 36011KT 04/04 A3032 RMK A01 T00400037  RH  098%=      5-min Rain = 0
KMC1 072132Z 36008KT 04/04 A3032 RMK A01 T00390037  RH  098%=      5-min Rain = 0
KMC1 072133Z 00009KT 04/04 A3032 RMK A01 T00390037  RH  098%=      5-min Rain = 0
KMC1 072134Z 01009KT 04/04 A3032 RMK A01 T00390036  RH  098%=      5-min Rain = 0
KMC1 072135Z 36008KT 04/04 A3032 RMK A01 T00380036  RH  098%=      5-min Rain = 0
KMC1 072136Z 36008KT 04/04 A3032 RMK A01 T00380036  RH  098%=      5-min Rain = 0.01
KMC1 072137Z 35009KT 04/04 A3032 RMK A01 T00390036  RH  098%=      5-min Rain = 0
KMC1 072138Z 35008KT 04/04 A3032 RMK A01 T00390037  RH  098%=      5-min Rain = 0
KMC1 072139Z 36006KT 04/04 A3032 RMK A01 T00400038  RH  099%=      5-min Rain = 0
KMC1 072140Z 35006KT 04/04 A3032 RMK A01 T00400038  RH  099%=      5-min Rain = 0
KMC1 072141Z 34008KT 04/04 A3032 RMK A01 T00400039  RH  099%=      5-min Rain = 0
KMC1 072142Z 35008KT 04/04 A3032 RMK A01 T00400038  RH  099%=      5-min Rain = 0
KMC1 072143Z 35007KT 04/04 A3032 RMK A01 T00400038  RH  099%=      5-min Rain = 0
KMC1 072144Z 35009KT 04/04 A3032 RMK A01 T00400038  RH  099%=      5-min Rain = 0
KMC1 072145Z 35010KT 04/04 A3032 RMK A01 T00400038  RH  099%=      5-min Rain = 0
KMC1 072146Z 36010G15KT 04/04 A3032 RMK A01 T00400039  RH  099%=      5-min Rain = 0
KMC1 072147Z 35011KT 04/04 A3032 RMK A01 T00400038  RH  099%=      5-min Rain = 0.01
KMC1 072148Z 00009KT 04/04 A3032 RMK A01 T00400038  RH  099%=      5-min Rain = 0
KMC1 072149Z 00012KT 04/04 A3032 RMK A01 T00400038  RH  099%=      5-min Rain = 0
KMC1 072150Z 35009KT 04/04 A3033 RMK A01 T00390038  RH  099%=      5-min Rain = 0
KMC1 072151Z 34009KT 04/04 A3033 RMK A01 T00390038  RH  099%=      5-min Rain = 0
KMC1 072152Z 35009KT 04/04 A3033 RMK A01 T00400038  RH  099%=      5-min Rain = 0
KMC1 072153Z 35011KT 04/04 A3033 RMK A01 T00400039  RH  099%=      5-min Rain = 0
KMC1 072154Z 35010KT 04/04 A3033 RMK A01 T00400038  RH  099%=      5-min Rain = 0
KMC1 072155Z 36009KT 04/04 A3032 RMK A01 T00400039  RH  099%=      5-min Rain = 0
KMC1 072156Z 01011KT 04/04 A3032 RMK A01 T00400039  RH  099%=      5-min Rain = 0
KMC1 072157Z 01011KT 04/04 A3032 RMK A01 T00400038  RH  099%=      5-min Rain = 0
KMC1 072158Z 01010KT 04/04 A3032 RMK A01 T00400038  RH  099%=      5-min Rain = 0.01
KMC1 072159Z 35010KT 04/04 A3032 RMK A01 T00400039  RH  099%=      5-min Rain = 0
KMC1 072200Z 35010KT 04/04 A3032 RMK A01 T00400039  RH  099%=      5-min Rain = 0
KMC1 072201Z 35009G15KT 04/04 A3032 RMK A01 T00400039  RH  099%=      5-min Rain = 0
KMC1 072202Z 35012KT 04/04 A3032 RMK A01 T00400038  RH  099%=      5-min Rain = 0
KMC1 072203Z 35012KT 04/04 A3032 RMK A01 T00390037  RH  099%=      5-min Rain = 0
KMC1 072204Z 35011KT 04/04 A3032 RMK A01 T00380036  RH  099%=      5-min Rain = 0
KMC1 072205Z 35010KT 04/04 A3032 RMK A01 T00380037  RH  099%=      5-min Rain = 0
KMC1 072206Z 35008KT 04/04 A3032 RMK A01 T00380037  RH  099%=      5-min Rain = 0.01
KMC1 072207Z 01010KT 04/04 A3032 RMK A01 T00380037  RH  099%=      5-min Rain = 0
KMC1 072208Z 36010KT 04/04 A3032 RMK A01 T00390037  RH  099%=      5-min Rain = 0
KMC1 072209Z 35011KT 04/04 A3032 RMK A01 T00380037  RH  099%=      5-min Rain = 0
KMC1 072210Z 36013G18KT 04/04 A3032 RMK A01 T00380037  RH  099%=      5-min Rain = 0
KMC1 072211Z 35009KT 04/04 A3032 RMK A01 T00370036  RH  099%=      5-min Rain = 0
KMC1 072212Z 36009KT 04/04 A3032 RMK A01 T00370036  RH  099%=      5-min Rain = 0
KMC1 072213Z 35011KT 04/04 A3032 RMK A01 T00380037  RH  099%=      5-min Rain = 0
KMC1 072214Z 36010KT 04/04 A3032 RMK A01 T00380037  RH  099%=      5-min Rain = 0
KMC1 072215Z 35011KT 04/04 A3032 RMK A01 T00380037  RH  099%=      5-min Rain = 0
KMC1 072216Z 35008KT 04/04 A3032 RMK A01 T00390037  RH  099%=      5-min Rain = 0
KMC1 072217Z 35009KT 04/04 A3032 RMK A01 T00390038  RH  099%=      5-min Rain = 0
KMC1 072218Z 36008KT 04/04 A3033 RMK A01 T00390038  RH  099%=      5-min Rain = 0
KMC1 072219Z 36008KT 04/04 A3033 RMK A01 T00400038  RH  099%=      5-min Rain = 0
KMC1 072220Z 00006KT 04/04 A3033 RMK A01 T00400039  RH  099%=      5-min Rain = 0
KMC1 072221Z 36008KT 04/04 A3033 RMK A01 T00400039  RH  099%=      5-min Rain = 0
KMC1 072222Z 00009KT 04/04 A3033 RMK A01 T00400039  RH  099%=      5-min Rain = 0
KMC1 072223Z 00009KT 04/04 A3033 RMK A01 T00400039  RH  099%=      5-min Rain = 0
KMC1 072224Z 00011KT 04/04 A3033 RMK A01 T00390038  RH  099%=      5-min Rain = 0
KMC1 072225Z 00010KT 04/04 A3033 RMK A01 T00380037  RH  099%=      5-min Rain = 0
KMC1 072226Z 00010KT 04/04 A3033 RMK A01 T00380036  RH  099%=      5-min Rain = 0
KMC1 072227Z 36009KT 04/04 A3033 RMK A01 T00380036  RH  099%=      5-min Rain = 0
KMC1 072228Z 34011KT 04/04 A3033 RMK A01 T00380037  RH  099%=      5-min Rain = 0
KMC1 072229Z 35009KT 04/04 A3033 RMK A01 T00390037  RH  099%=      5-min Rain = 0
KMC1 072230Z 34009KT 04/04 A3033 RMK A01 T00390037  RH  099%=      5-min Rain = 0
KMC1 072231Z 34007KT 04/04 A3033 RMK A01 T00390037  RH  099%=      5-min Rain = 0
KMC1 072232Z 35012KT 04/04 A3034 RMK A01 T00390037  RH  099%=      5-min Rain = 0
KMC1 072233Z 35013KT 04/04 A3034 RMK A01 T00390037  RH  099%=      5-min Rain = 0
KMC1 072234Z 34011KT 04/04 A3034 RMK A01 T00380036  RH  099%=      5-min Rain = 0
KMC1 072235Z 35012KT 04/04 A3034 RMK A01 T00380036  RH  099%=      5-min Rain = 0
KMC1 072236Z 34010KT 04/04 A3034 RMK A01 T00380036  RH  099%=      5-min Rain = 0
KMC1 072237Z 35009KT 04/04 A3034 RMK A01 T00380036  RH  099%=      5-min Rain = 0
KMC1 072238Z 35010KT 04/04 A3034 RMK A01 T00380036  RH  099%=      5-min Rain = 0
KMC1 072239Z 34012KT 04/04 A3034 RMK A01 T00380036  RH  099%=      5-min Rain = 0
KMC1 072240Z 34007KT 04/04 A3034 RMK A01 T00380036  RH  099%=      5-min Rain = 0
KMC1 072241Z 35009G14KT 04/04 A3034 RMK A01 T00380036  RH  099%=      5-min Rain = 0
KMC1 072242Z 35010G15KT 04/04 A3034 RMK A01 T00380037  RH  099%=      5-min Rain = 0
KMC1 072243Z 35009KT 04/04 A3034 RMK A01 T00380037  RH  099%=      5-min Rain = 0
KMC1 072244Z 35011KT 04/04 A3034 RMK A01 T00390037  RH  099%=      5-min Rain = 0
KMC1 072245Z 35007KT 04/04 A3034 RMK A01 T00380037  RH  099%=      5-min Rain = 0
KMC1 072246Z 34011KT 04/04 A3034 RMK A01 T00380037  RH  099%=      5-min Rain = 0
KMC1 072247Z 34010KT 04/04 A3034 RMK A01 T00380036  RH  099%=      5-min Rain = 0.01
KMC1 072248Z 35011KT 04/04 A3034 RMK A01 T00380036  RH  099%=      5-min Rain = 0
KMC1 072249Z 35011KT 04/04 A3034 RMK A01 T00380036  RH  099%=      5-min Rain = 0
KMC1 072250Z 35009KT 04/04 A3034 RMK A01 T00380036  RH  099%=      5-min Rain = 0
KMC1 072251Z 35008KT 04/04 A3034 RMK A01 T00380036  RH  099%=      5-min Rain = 0
KMC1 072252Z 35010KT 04/04 A3035 RMK A01 T00390037  RH  099%=      5-min Rain = 0
KMC1 072253Z 34013G18KT 04/04 A3035 RMK A01 T00390037  RH  099%=      5-min Rain = 0
KMC1 072254Z 35012KT 04/04 A3035 RMK A01 T00380036  RH  098%=      5-min Rain = 0
KMC1 072255Z 35009KT 04/04 A3035 RMK A01 T00380036  RH  098%=      5-min Rain = 0
KMC1 072256Z 35011KT 04/04 A3035 RMK A01 T00380036  RH  098%=      5-min Rain = 0
KMC1 072257Z 36011G16KT 04/04 A3035 RMK A01 T00390036  RH  098%=      5-min Rain = 0
KMC1 072258Z 36010KT 04/04 A3035 RMK A01 T00390035  RH  098%=      5-min Rain = 0
KMC1 072259Z 35010KT 04/04 A3034 RMK A01 T00390035  RH  098%=      5-min Rain = 0
KMC1 072300Z 35008KT 04/04 A3034 RMK A01 T00390035  RH  098%=      5-min Rain = 0
KMC1 072301Z 35008KT 04/04 A3034 RMK A01 T00390036  RH  098%=      5-min Rain = 0
KMC1 072302Z 35012KT 04/04 A3034 RMK A01 T00390037  RH  098%=      5-min Rain = 0
KMC1 072303Z 35011KT 04/04 A3035 RMK A01 T00400037  RH  098%=      5-min Rain = 0
KMC1 072304Z 34009KT 04/04 A3035 RMK A01 T00390037  RH  098%=      5-min Rain = 0
KMC1 072305Z 34007KT 04/04 A3035 RMK A01 T00390037  RH  098%=      5-min Rain = 0
KMC1 072306Z 36013KT 04/04 A3035 RMK A01 T00390037  RH  098%=      5-min Rain = 0
KMC1 072307Z 36013KT 04/04 A3034 RMK A01 T00380035  RH  098%=      5-min Rain = 0
KMC1 072308Z 35014KT 04/04 A3034 RMK A01 T00380035  RH  098%=      5-min Rain = 0
KMC1 072309Z 34015KT 04/04 A3034 RMK A01 T00380035  RH  098%=      5-min Rain = 0
KMC1 072310Z 35014KT 04/03 A3034 RMK A01 T00370034  RH  098%=      5-min Rain = 0
KMC1 072311Z 35009KT 04/03 A3034 RMK A01 T00370034  RH  098%=      5-min Rain = 0
KMC1 072312Z 34010KT 04/03 A3035 RMK A01 T00370034  RH  098%=      5-min Rain = 0
KMC1 072313Z 34013KT 04/03 A3035 RMK A01 T00370034  RH  098%=      5-min Rain = 0
KMC1 072314Z 34009G14KT 04/03 A3035 RMK A01 T00370034  RH  098%=      5-min Rain = 0
KMC1 072315Z 34008KT 04/03 A3035 RMK A01 T00360034  RH  099%=      5-min Rain = 0
KMC1 072316Z 34007KT 04/04 A3035 RMK A01 T00370035  RH  099%=      5-min Rain = 0
KMC1 072317Z 34007G12KT 04/04 A3035 RMK A01 T00370036  RH  099%=      5-min Rain = 0
KMC1 072318Z 34011G17KT 04/04 A3035 RMK A01 T00370036  RH  099%=      5-min Rain = 0
KMC1 072319Z 35011KT 04/04 A3035 RMK A01 T00360035  RH  099%=      5-min Rain = 0
KMC1 072320Z 34010KT 04/04 A3035 RMK A01 T00360035  RH  099%=      5-min Rain = 0
KMC1 072321Z 35013KT 04/04 A3035 RMK A01 T00360035  RH  099%=      5-min Rain = 0
KMC1 072322Z 34011KT 04/04 A3035 RMK A01 T00360035  RH  099%=      5-min Rain = 0
KMC1 072323Z 34011KT 04/04 A3035 RMK A01 T00360035  RH  099%=      5-min Rain = 0
KMC1 072324Z 34012KT 04/04 A3035 RMK A01 T00360035  RH  099%=      5-min Rain = 0
KMC1 072325Z 34011KT 04/03 A3035 RMK A01 T00360034  RH  099%=      5-min Rain = 0
KMC1 072326Z 34012G17KT 04/03 A3035 RMK A01 T00350034  RH  099%=      5-min Rain = 0
KMC1 072327Z 33011KT 04/03 A3035 RMK A01 T00350033  RH  099%=      5-min Rain = 0
KMC1 072328Z 34007KT 04/03 A3035 RMK A01 T00360034  RH  099%=      5-min Rain = 0
KMC1 072329Z 33008KT 04/03 A3035 RMK A01 T00350034  RH  099%=      5-min Rain = 0
KMC1 072330Z 33010KT 04/03 A3035 RMK A01 T00360034  RH  099%=      5-min Rain = 0
KMC1 072331Z 34008KT 04/03 A3035 RMK A01 T00350034  RH  099%=      5-min Rain = 0
KMC1 072332Z 34008G14KT 04/03 A3035 RMK A01 T00350034  RH  099%=      5-min Rain = 0
KMC1 072333Z 35009G15KT 04/03 A3035 RMK A01 T00350034  RH  099%=      5-min Rain = 0
KMC1 072334Z 00012KT 04/03 A3035 RMK A01 T00350034  RH  099%=      5-min Rain = 0
KMC1 072335Z 33012KT 04/03 A3035 RMK A01 T00350034  RH  099%=      5-min Rain = 0
KMC1 072336Z 35013G20KT 04/03 A3035 RMK A01 T00350034  RH  099%=      5-min Rain = 0
KMC1 072337Z 35014KT 04/03 A3035 RMK A01 T00350034  RH  099%=      5-min Rain = 0
KMC1 072338Z 34017KT 04/03 A3036 RMK A01 T00350034  RH  099%=      5-min Rain = 0
KMC1 072339Z 35014KT 03/03 A3036 RMK A01 T00340033  RH  099%=      5-min Rain = 0
KMC1 072340Z 35016KT 03/03 A3036 RMK A01 T00340033  RH  099%=      5-min Rain = 0
KMC1 072341Z 35015KT 03/03 A3036 RMK A01 T00340033  RH  099%=      5-min Rain = 0
KMC1 072342Z 34014KT 03/03 A3036 RMK A01 T00340033  RH  099%=      5-min Rain = 0
KMC1 072343Z 34013KT 03/03 A3036 RMK A01 T00340033  RH  099%=      5-min Rain = 0
KMC1 072344Z 34014KT 03/03 A3036 RMK A01 T00340032  RH  099%=      5-min Rain = 0
KMC1 072345Z 34014KT 04/03 A3036 RMK A01 T00350033  RH  099%=      5-min Rain = 0
KMC1 072346Z 34013G19KT 04/03 A3036 RMK A01 T00350032  RH  099%=      5-min Rain = 0
KMC1 072347Z 36011G16KT 03/03 A3035 RMK A01 T00340032  RH  098%=      5-min Rain = 0
KMC1 072348Z 36008KT 04/03 A3035 RMK A01 T00350032  RH  098%=      5-min Rain = 0
KMC1 072349Z 00013KT 04/03 A3035 RMK A01 T00350032  RH  098%=      5-min Rain = 0
KMC1 072350Z 01011KT 04/03 A3035 RMK A01 T00350032  RH  098%=      5-min Rain = 0
KMC1 072351Z 02012KT 03/03 A3035 RMK A01 T00340031  RH  098%=      5-min Rain = 0
KMC1 072352Z 01011KT 03/03 A3035 RMK A01 T00340031  RH  098%=      5-min Rain = 0
KMC1 072353Z 00010KT 03/03 A3035 RMK A01 T00340031  RH  098%=      5-min Rain = 0
KMC1 072354Z 00010KT 03/03 A3035 RMK A01 T00330031  RH  098%=      5-min Rain = 0
KMC1 072355Z 35011KT 03/03 A3035 RMK A01 T00330031  RH  098%=      5-min Rain = 0
KMC1 072356Z 36009KT 03/03 A3036 RMK A01 T00330031  RH  098%=      5-min Rain = 0
KMC1 072357Z 00007KT 03/03 A3036 RMK A01 T00340031  RH  098%=      5-min Rain = 0
KMC1 072358Z 36010KT 03/03 A3036 RMK A01 T00330031  RH  099%=      5-min Rain = 0
KMC1 072359Z 35010KT 03/03 A3036 RMK A01 T00340031  RH  099%=      5-min Rain = 0
KMC1 080000Z 35012G17KT 03/03 A3036 RMK A01 T00330031  RH  099%=      5-min Rain = 0
KMC1 080001Z 34012KT 03/03 A3036 RMK A01 T00330031  RH  099%=      5-min Rain = 0
KMC1 080002Z 35009KT 03/03 A3036 RMK A01 T00330031  RH  099%=      5-min Rain = 0
KMC1 080003Z 35012G19KT 03/03 A3036 RMK A01 T00330032  RH  099%=      5-min Rain = 0
KMC1 080004Z 36012KT 03/03 A3036 RMK A01 T00330031  RH  099%=      5-min Rain = 0
KMC1 080005Z 35014G19KT 03/03 A3036 RMK A01 T00330031  RH  099%=      5-min Rain = 0
KMC1 080006Z 35013KT 03/03 A3036 RMK A01 T00330030  RH  098%=      5-min Rain = 0
KMC1 080007Z 36011KT 03/03 A3036 RMK A01 T00320030  RH  098%=      5-min Rain = 0
KMC1 080008Z 00013KT 03/03 A3036 RMK A01 T00320030  RH  098%=      5-min Rain = 0
KMC1 080009Z 36013KT 03/03 A3036 RMK A01 T00320030  RH  098%=      5-min Rain = 0
KMC1 080010Z 36010KT 03/03 A3036 RMK A01 T00320030  RH  098%=      5-min Rain = 0
KMC1 080011Z 35010KT 03/03 A3036 RMK A01 T00320030  RH  098%=      5-min Rain = 0
KMC1 080012Z 00011KT 03/03 A3036 RMK A01 T00320030  RH  098%=      5-min Rain = 0
KMC1 080013Z 35013KT 03/03 A3036 RMK A01 T00330030  RH  098%=      5-min Rain = 0
KMC1 080014Z 00013KT 03/03 A3036 RMK A01 T00330030  RH  098%=      5-min Rain = 0
KMC1 080015Z 35010KT 03/03 A3036 RMK A01 T00320029  RH  098%=      5-min Rain = 0
KMC1 080016Z 00011G16KT 03/03 A3037 RMK A01 T00320030  RH  098%=      5-min Rain = 0
KMC1 080017Z 35009KT 03/03 A3037 RMK A01 T00320030  RH  098%=      5-min Rain = 0
KMC1 080018Z 36010KT 03/03 A3037 RMK A01 T00320030  RH  098%=      5-min Rain = 0
KMC1 080019Z 35008KT 03/03 A3036 RMK A01 T00320030  RH  098%=      5-min Rain = 0
KMC1 080020Z 35008KT 03/03 A3037 RMK A01 T00320030  RH  098%=      5-min Rain = 0
KMC1 080021Z 34008KT 03/03 A3037 RMK A01 T00320030  RH  099%=      5-min Rain = 0
KMC1 080022Z 34009KT 03/03 A3037 RMK A01 T00320030  RH  099%=      5-min Rain = 0
KMC1 080023Z 35009KT 03/03 A3037 RMK A01 T00320030  RH  099%=      5-min Rain = 0
KMC1 080024Z 34010KT 03/03 A3037 RMK A01 T00320030  RH  099%=      5-min Rain = 0
KMC1 080025Z 35010KT 03/03 A3037 RMK A01 T00320030  RH  099%=      5-min Rain = 0
KMC1 080026Z 35009KT 03/03 A3037 RMK A01 T00320031  RH  099%=      5-min Rain = 0
KMC1 080027Z 00008KT 03/03 A3037 RMK A01 T00320031  RH  099%=      5-min Rain = 0
KMC1 080028Z 36010KT 03/03 A3037 RMK A01 T00320030  RH  099%=      5-min Rain = 0
KMC1 080029Z 35011KT 03/03 A3037 RMK A01 T00320031  RH  099%=      5-min Rain = 0
KMC1 080030Z 00013G19KT 03/03 A3037 RMK A01 T00320030  RH  099%=      5-min Rain = 0
KMC1 080031Z 35011KT 03/03 A3037 RMK A01 T00320030  RH  099%=      5-min Rain = 0
KMC1 080032Z 34012KT 03/03 A3037 RMK A01 T00320030  RH  099%=      5-min Rain = 0
KMC1 080033Z 35011KT 03/03 A3037 RMK A01 T00310029  RH  098%=      5-min Rain = 0
KMC1 080034Z 36012KT 03/03 A3037 RMK A01 T00310029  RH  098%=      5-min Rain = 0
KMC1 080035Z 36012KT 03/03 A3037 RMK A01 T00310028  RH  098%=      5-min Rain = 0
KMC1 080036Z 35010KT 03/03 A3037 RMK A01 T00310028  RH  098%=      5-min Rain = 0
KMC1 080037Z 35012KT 03/03 A3037 RMK A01 T00310027  RH  097%=      5-min Rain = 0
KMC1 080038Z 36010G15KT 03/03 A3037 RMK A01 T00310027  RH  097%=      5-min Rain = 0
KMC1 080039Z 00012G17KT 03/03 A3037 RMK A01 T00310027  RH  097%=      5-min Rain = 0
KMC1 080040Z 00015KT 03/03 A3037 RMK A01 T00310027  RH  097%=      5-min Rain = 0
KMC1 080041Z 35014KT 03/03 A3037 RMK A01 T00310026  RH  096%=      5-min Rain = 0
KMC1 080042Z 36012KT 03/03 A3037 RMK A01 T00310026  RH  096%=      5-min Rain = 0
KMC1 080043Z 35014G19KT 03/03 A3037 RMK A01 T00310026  RH  096%=      5-min Rain = 0
KMC1 080044Z 35012KT 03/03 A3037 RMK A01 T00310026  RH  096%=      5-min Rain = 0
KMC1 080045Z 35011KT 03/03 A3037 RMK A01 T00310026  RH  096%=      5-min Rain = 0
KMC1 080046Z 00008KT 03/03 A3037 RMK A01 T00310026  RH  097%=      5-min Rain = 0
KMC1 080047Z 35007KT 03/03 A3037 RMK A01 T00310027  RH  097%=      5-min Rain = 0
KMC1 080048Z 35010KT 03/03 A3038 RMK A01 T00310027  RH  097%=      5-min Rain = 0
KMC1 080049Z 34011KT 03/03 A3038 RMK A01 T00310027  RH  097%=      5-min Rain = 0
KMC1 080050Z 35013KT 03/03 A3038 RMK A01 T00310027  RH  097%=      5-min Rain = 0
KMC1 080051Z 35015KT 03/03 A3038 RMK A01 T00310026  RH  097%=      5-min Rain = 0
KMC1 080052Z 35011KT 03/03 A3038 RMK A01 T00310026  RH  097%=      5-min Rain = 0
KMC1 080053Z 35010KT 03/03 A3038 RMK A01 T00310027  RH  097%=      5-min Rain = 0
KMC1 080054Z 34007KT 03/03 A3038 RMK A01 T00310027  RH  097%=      5-min Rain = 0
KMC1 080055Z 34010KT 03/03 A3038 RMK A01 T00310028  RH  098%=      5-min Rain = 0
KMC1 080056Z 35011KT 03/03 A3038 RMK A01 T00310027  RH  098%=      5-min Rain = 0
KMC1 080057Z 35010KT 03/03 A3038 RMK A01 T00310027  RH  098%=      5-min Rain = 0
KMC1 080058Z 34010KT 03/03 A3038 RMK A01 T00300028  RH  098%=      5-min Rain = 0
KMC1 080059Z 35010KT 03/03 A3038 RMK A01 T00300028  RH  098%=      5-min Rain = 0
KMC1 080100Z 35009KT 03/03 A3038 RMK A01 T00300028  RH  098%=      5-min Rain = 0
KMC1 080101Z 35013KT 03/03 A3038 RMK A01 T00300027  RH  098%=      5-min Rain = 0
KMC1 080102Z 35012KT 03/03 A3038 RMK A01 T00300027  RH  098%=      5-min Rain = 0
KMC1 080103Z 35010KT 03/03 A3038 RMK A01 T00290026  RH  098%=      5-min Rain = 0
KMC1 080104Z 34013KT 03/03 A3038 RMK A01 T00290026  RH  098%=      5-min Rain = 0
KMC1 080105Z 35007KT 03/03 A3038 RMK A01 T00290026  RH  098%=      5-min Rain = 0
KMC1 080106Z 34006KT 03/03 A3038 RMK A01 T00290026  RH  098%=      5-min Rain = 0
KMC1 080107Z 35007KT 03/03 A3038 RMK A01 T00290026  RH  098%=      5-min Rain = 0
KMC1 080108Z 34008KT 03/03 A3038 RMK A01 T00300027  RH  098%=      5-min Rain = 0
KMC1 080109Z 35013KT 03/03 A3038 RMK A01 T00290027  RH  098%=      5-min Rain = 0
KMC1 080110Z 35014G19KT 03/03 A3038 RMK A01 T00290026  RH  098%=      5-min Rain = 0
KMC1 080111Z 34010KT 03/03 A3038 RMK A01 T00280025  RH  098%=      5-min Rain = 0
KMC1 080112Z 35009KT 03/03 A3038 RMK A01 T00290026  RH  098%=      5-min Rain = 0
KMC1 080113Z 35011KT 03/03 A3038 RMK A01 T00280026  RH  098%=      5-min Rain = 0
KMC1 080114Z 35014G19KT 03/03 A3038 RMK A01 T00280026  RH  098%=      5-min Rain = 0
KMC1 080115Z 35013KT 03/03 A3038 RMK A01 T00280025  RH  098%=      5-min Rain = 0
KMC1 080116Z 36009KT 03/03 A3038 RMK A01 T00280025  RH  098%=      5-min Rain = 0
KMC1 080117Z 35010KT 03/03 A3038 RMK A01 T00280025  RH  098%=      5-min Rain = 0
KMC1 080118Z 35010G15KT 03/03 A3038 RMK A01 T00280025  RH  098%=      5-min Rain = 0
KMC1 080119Z 35010KT 03/03 A3039 RMK A01 T00280025  RH  098%=      5-min Rain = 0
KMC1 080120Z 35011KT 03/03 A3039 RMK A01 T00280025  RH  098%=      5-min Rain = 0
KMC1 080121Z 36009KT 03/03 A3039 RMK A01 T00280025  RH  098%=      5-min Rain = 0
KMC1 080122Z 35008KT 03/03 A3039 RMK A01 T00280025  RH  098%=      5-min Rain = 0
KMC1 080123Z 36011KT 03/03 A3039 RMK A01 T00280025  RH  098%=      5-min Rain = 0
KMC1 080124Z 35008KT 03/02 A3039 RMK A01 T00280024  RH  098%=      5-min Rain = 0
KMC1 080125Z 36011KT 03/03 A3039 RMK A01 T00280025  RH  098%=      5-min Rain = 0
KMC1 080126Z 35012KT 03/03 A3039 RMK A01 T00280025  RH  098%=      5-min Rain = 0
KMC1 080127Z 35009KT 03/03 A3039 RMK A01 T00280025  RH  098%=      5-min Rain = 0
KMC1 080128Z 34009KT 03/03 A3039 RMK A01 T00280025  RH  098%=      5-min Rain = 0
KMC1 080129Z 35010G15KT 03/03 A3039 RMK A01 T00280025  RH  098%=      5-min Rain = 0
KMC1 080130Z 35009KT 03/03 A3039 RMK A01 T00280025  RH  098%=      5-min Rain = 0
KMC1 080131Z 35010KT 03/03 A3039 RMK A01 T00280025  RH  098%=      5-min Rain = 0
KMC1 080132Z 35009KT 03/03 A3039 RMK A01 T00280025  RH  098%=      5-min Rain = 0
KMC1 080133Z 35013KT 03/03 A3039 RMK A01 T00280025  RH  098%=      5-min Rain = 0
KMC1 080134Z 35010KT 03/03 A3039 RMK A01 T00280025  RH  098%=      5-min Rain = 0
KMC1 080135Z 35010KT 03/03 A3039 RMK A01 T00280025  RH  098%=      5-min Rain = 0
KMC1 080136Z 36010KT 03/03 A3039 RMK A01 T00280025  RH  098%=      5-min Rain = 0
KMC1 080137Z 35013KT 03/03 A3039 RMK A01 T00280025  RH  098%=      5-min Rain = 0
KMC1 080138Z 00010KT 03/03 A3039 RMK A01 T00280025  RH  098%=      5-min Rain = 0
KMC1 080139Z 36011KT 03/03 A3039 RMK A01 T00280025  RH  098%=      5-min Rain = 0
KMC1 080140Z 36008KT 03/03 A3039 RMK A01 T00280025  RH  098%=      5-min Rain = 0
KMC1 080141Z 36008KT 03/03 A3039 RMK A01 T00280025  RH  098%=      5-min Rain = 0
KMC1 080142Z 35009KT 03/03 A3039 RMK A01 T00280025  RH  098%=      5-min Rain = 0
KMC1 080143Z 35009KT 03/03 A3039 RMK A01 T00280025  RH  098%=      5-min Rain = 0
KMC1 080144Z 36011KT 03/03 A3039 RMK A01 T00280025  RH  098%=      5-min Rain = 0
KMC1 080145Z 35009KT 03/03 A3039 RMK A01 T00280025  RH  099%=      5-min Rain = 0
KMC1 080146Z 36010G15KT 03/03 A3039 RMK A01 T00280025  RH  098%=      5-min Rain = 0
KMC1 080147Z 35011G16KT 03/03 A3039 RMK A01 T00280025  RH  099%=      5-min Rain = 0
KMC1 080148Z 36008KT 03/03 A3039 RMK A01 T00280026  RH  099%=      5-min Rain = 0
KMC1 080149Z 36010KT 03/03 A3039 RMK A01 T00280026  RH  099%=      5-min Rain = 0
KMC1 080150Z 35009KT 03/03 A3039 RMK A01 T00270025  RH  099%=      5-min Rain = 0
KMC1 080151Z 35007KT 03/03 A304 RMK A01 T00280026  RH  099%=      5-min Rain = 0
KMC1 080152Z 34010KT 03/03 A304 RMK A01 T00280026  RH  099%=      5-min Rain = 0
KMC1 080153Z 36012G17KT 03/03 A304 RMK A01 T00280026  RH  099%=      5-min Rain = 0
KMC1 080154Z 36012KT 03/03 A304 RMK A01 T00280026  RH  098%=      5-min Rain = 0
KMC1 080155Z 36012KT 03/03 A304 RMK A01 T00280025  RH  098%=      5-min Rain = 0
KMC1 080156Z 35012KT 03/03 A304 RMK A01 T00270025  RH  098%=      5-min Rain = 0
KMC1 080157Z 34009G14KT 03/03 A304 RMK A01 T00280025  RH  098%=      5-min Rain = 0
KMC1 080158Z 35009KT 03/03 A304 RMK A01 T00270025  RH  098%=      5-min Rain = 0
KMC1 080159Z 35012KT 03/03 A304 RMK A01 T00270025  RH  098%=      5-min Rain = 0
KMC1 080200Z 35009KT 03/03 A304 RMK A01 T00280025  RH  098%=      5-min Rain = 0
KMC1 080201Z 35010KT 03/03 A304 RMK A01 T00280025  RH  098%=      5-min Rain = 0
KMC1 080202Z 35008KT 03/03 A304 RMK A01 T00280025  RH  098%=      5-min Rain = 0
KMC1 080203Z 00009KT 03/03 A304 RMK A01 T00280025  RH  098%=      5-min Rain = 0
KMC1 080204Z 35009KT 03/03 A304 RMK A01 T00280025  RH  098%=      5-min Rain = 0
KMC1 080205Z 34008KT 03/03 A3039 RMK A01 T00280025  RH  098%=      5-min Rain = 0
KMC1 080206Z 36009KT 03/03 A304 RMK A01 T00280025  RH  099%=      5-min Rain = 0
KMC1 080207Z 34009KT 03/03 A3039 RMK A01 T00280025  RH  099%=      5-min Rain = 0
KMC1 080208Z 35010KT 03/03 A3039 RMK A01 T00280025  RH  098%=      5-min Rain = 0
KMC1 080209Z 34011G16KT 03/03 A304 RMK A01 T00270025  RH  098%=      5-min Rain = 0
KMC1 080210Z 36010KT 03/03 A304 RMK A01 T00270025  RH  098%=      5-min Rain = 0
KMC1 080211Z 35013KT 03/03 A304 RMK A01 T00270025  RH  098%=      5-min Rain = 0
KMC1 080212Z 34010KT 03/02 A304 RMK A01 T00270024  RH  098%=      5-min Rain = 0
KMC1 080213Z 00012KT 03/02 A304 RMK A01 T00270024  RH  098%=      5-min Rain = 0
KMC1 080214Z 35011KT 03/02 A304 RMK A01 T00270024  RH  098%=      5-min Rain = 0
KMC1 080215Z 36011KT 03/02 A304 RMK A01 T00270024  RH  098%=      5-min Rain = 0
KMC1 080216Z 00009KT 03/02 A304 RMK A01 T00270024  RH  098%=      5-min Rain = 0
KMC1 080217Z 01010KT 03/02 A304 RMK A01 T00270024  RH  098%=      5-min Rain = 0
KMC1 080218Z 00011KT 03/03 A304 RMK A01 T00270025  RH  098%=      5-min Rain = 0
KMC1 080219Z 35012KT 03/02 A304 RMK A01 T00270024  RH  098%=      5-min Rain = 0
KMC1 080220Z 35009KT 03/02 A304 RMK A01 T00260024  RH  098%=      5-min Rain = 0
KMC1 080221Z 00005KT 03/02 A304 RMK A01 T00260024  RH  098%=      5-min Rain = 0
KMC1 080222Z 35008G13KT 03/02 A3041 RMK A01 T00270024  RH  098%=      5-min Rain = 0
KMC1 080223Z 35008KT 03/02 A3041 RMK A01 T00260024  RH  098%=      5-min Rain = 0
KMC1 080224Z 35007KT 03/03 A3041 RMK A01 T00270025  RH  098%=      5-min Rain = 0
KMC1 080225Z 36009KT 03/03 A3041 RMK A01 T00270025  RH  099%=      5-min Rain = 0
KMC1 080226Z 36007KT 03/03 A3041 RMK A01 T00270025  RH  099%=      5-min Rain = 0
KMC1 080227Z 00007KT 03/03 A3041 RMK A01 T00270025  RH  099%=      5-min Rain = 0
KMC1 080228Z 36008KT 03/03 A3041 RMK A01 T00270025  RH  099%=      5-min Rain = 0
KMC1 080229Z 35009KT 03/03 A3041 RMK A01 T00270025  RH  099%=      5-min Rain = 0
KMC1 080230Z 35011KT 03/03 A3041 RMK A01 T00270025  RH  099%=      5-min Rain = 0
KMC1 080231Z 35011KT 03/03 A3041 RMK A01 T00270025  RH  099%=      5-min Rain = 0
KMC1 080232Z 34010G15KT 03/03 A3041 RMK A01 T00270025  RH  099%=      5-min Rain = 0
KMC1 080233Z 34013KT 03/02 A3041 RMK A01 T00260024  RH  099%=      5-min Rain = 0
KMC1 080234Z 34010KT 03/02 A3041 RMK A01 T00260024  RH  099%=      5-min Rain = 0
KMC1 080235Z 33007KT 03/02 A3041 RMK A01 T00260024  RH  099%=      5-min Rain = 0
KMC1 080236Z 34007G13KT 03/02 A3041 RMK A01 T00260024  RH  099%=      5-min Rain = 0
KMC1 080237Z 34010KT 03/02 A3042 RMK A01 T00260024  RH  099%=      5-min Rain = 0
KMC1 080238Z 34008KT 03/02 A3042 RMK A01 T00260024  RH  099%=      5-min Rain = 0
KMC1 080239Z 33009G14KT 03/02 A3042 RMK A01 T00260024  RH  099%=      5-min Rain = 0
KMC1 080240Z 33008KT 03/02 A3042 RMK A01 T00260024  RH  099%=      5-min Rain = 0
KMC1 080241Z 34010KT 03/02 A3042 RMK A01 T00250024  RH  099%=      5-min Rain = 0
KMC1 080242Z 34007KT 03/02 A3042 RMK A01 T00250023  RH  099%=      5-min Rain = 0
KMC1 080243Z 36006KT 03/02 A3042 RMK A01 T00250024  RH  099%=      5-min Rain = 0
KMC1 080244Z 35008KT 03/02 A3042 RMK A01 T00250024  RH  099%=      5-min Rain = 0
KMC1 080245Z 35009KT 03/02 A3042 RMK A01 T00250024  RH  099%=      5-min Rain = 0
KMC1 080246Z 36007KT 03/02 A3042 RMK A01 T00250023  RH  099%=      5-min Rain = 0
KMC1 080247Z 00008KT 03/02 A3041 RMK A01 T00250023  RH  099%=      5-min Rain = 0
KMC1 080248Z 36009KT 03/02 A3041 RMK A01 T00250023  RH  099%=      5-min Rain = 0
KMC1 080249Z 36010KT 02/02 A3041 RMK A01 T00240023  RH  099%=      5-min Rain = 0
KMC1 080250Z 35010KT 02/02 A3041 RMK A01 T00240022  RH  099%=      5-min Rain = 0
KMC1 080251Z 34010KT 02/02 A3042 RMK A01 T00230022  RH  099%=      5-min Rain = 0
KMC1 080252Z 35013KT 02/02 A3042 RMK A01 T00230022  RH  099%=      5-min Rain = 0
KMC1 080253Z 35011KT 02/02 A3042 RMK A01 T00230021  RH  099%=      5-min Rain = 0
KMC1 080254Z 35014G19KT 02/02 A3042 RMK A01 T00220020  RH  099%=      5-min Rain = 0
KMC1 080255Z 36013KT 02/02 A3041 RMK A01 T00220021  RH  099%=      5-min Rain = 0
KMC1 080256Z 36013KT 02/02 A3041 RMK A01 T00220021  RH  099%=      5-min Rain = 0
KMC1 080257Z 35012KT 02/02 A3041 RMK A01 T00220021  RH  099%=      5-min Rain = 0
KMC1 080258Z 36013KT 02/02 A3041 RMK A01 T00220020  RH  099%=      5-min Rain = 0
KMC1 080259Z 35012KT 02/02 A3041 RMK A01 T00220020  RH  099%=      5-min Rain = 0
KMC1 080300Z 36012KT 02/02 A3041 RMK A01 T00220020  RH  099%=      5-min Rain = 0
KMC1 080301Z 36012KT 02/02 A3041 RMK A01 T00220020  RH  099%=      5-min Rain = 0
KMC1 080302Z 00012G17KT 02/02 A3041 RMK A01 T00210020  RH  099%=      5-min Rain = 0
KMC1 080303Z 35013KT 02/02 A3041 RMK A01 T00220020  RH  099%=      5-min Rain = 0
KMC1 080304Z 35012KT 02/02 A3041 RMK A01 T00220020  RH  099%=      5-min Rain = 0
KMC1 080305Z 36011KT 02/02 A3041 RMK A01 T00220020  RH  099%=      5-min Rain = 0
KMC1 080306Z 35009KT 02/02 A3041 RMK A01 T00210020  RH  099%=      5-min Rain = 0
KMC1 080307Z 35009KT 02/02 A3041 RMK A01 T00220020  RH  099%=      5-min Rain = 0
KMC1 080308Z 34011KT 02/02 A3041 RMK A01 T00220020  RH  099%=      5-min Rain = 0
KMC1 080309Z 35009KT 02/02 A3041 RMK A01 T00210020  RH  099%=      5-min Rain = 0
KMC1 080310Z 35009KT 02/02 A3042 RMK A01 T00210020  RH  099%=      5-min Rain = 0
KMC1 080311Z 36007KT 02/02 A3042 RMK A01 T00210020  RH  099%=      5-min Rain = 0
KMC1 080312Z 35007KT 02/02 A3042 RMK A01 T00210020  RH  099%=      5-min Rain = 0
KMC1 080313Z 35009KT 02/02 A3042 RMK A01 T00220021  RH  099%=      5-min Rain = 0
KMC1 080314Z 35010KT 02/02 A3042 RMK A01 T00220021  RH  099%=      5-min Rain = 0
KMC1 080315Z 01011KT 02/02 A3042 RMK A01 T00210020  RH  099%=      5-min Rain = 0
KMC1 080316Z 35009KT 02/02 A3042 RMK A01 T00210020  RH  099%=      5-min Rain = 0
KMC1 080317Z 36009KT 02/02 A3042 RMK A01 T00220021  RH  099%=      5-min Rain = 0
KMC1 080318Z 35010KT 02/02 A3042 RMK A01 T00220021  RH  099%=      5-min Rain = 0
KMC1 080319Z 36012KT 02/02 A3042 RMK A01 T00210021  RH  099%=      5-min Rain = 0
KMC1 080320Z 36010KT 02/02 A3042 RMK A01 T00220021  RH  099%=      5-min Rain = 0
KMC1 080321Z 00009KT 02/02 A3042 RMK A01 T00220021  RH  099%=      5-min Rain = 0
KMC1 080322Z 36010KT 02/02 A3041 RMK A01 T00220021  RH  099%=      5-min Rain = 0
KMC1 080323Z 36008KT 02/02 A3042 RMK A01 T00210021  RH  100%=      5-min Rain = 0
KMC1 080324Z 35007KT 02/02 A3042 RMK A01 T00220021  RH  100%=      5-min Rain = 0
KMC1 080325Z 36007G13KT 02/02 A3042 RMK A01 T00220021  RH  100%=      5-min Rain = 0
KMC1 080326Z 00008KT 02/02 A3042 RMK A01 T00220021  RH  100%=      5-min Rain = 0
KMC1 080327Z 36007KT 02/02 A3041 RMK A01 T00220021  RH  100%=      5-min Rain = 0
KMC1 080328Z 36006KT 02/02 A3041 RMK A01 T00220021  RH  100%=      5-min Rain = 0
KMC1 080329Z 00008KT 02/02 A3041 RMK A01 T00220022  RH  100%=      5-min Rain = 0
KMC1 080330Z 00009KT 02/02 A3041 RMK A01 T00220022  RH  100%=      5-min Rain = 0
KMC1 080331Z 35010KT 02/02 A3041 RMK A01 T00220022  RH  100%=      5-min Rain = 0
KMC1 080332Z 35008KT 02/02 A3041 RMK A01 T00220022  RH  100%=      5-min Rain = 0
KMC1 080333Z 35011KT 02/02 A3041 RMK A01 T00220022  RH  100%=      5-min Rain = 0
KMC1 080334Z 36009KT 02/02 A3041 RMK A01 T00220021  RH  100%=      5-min Rain = 0
KMC1 080335Z 35008KT 02/02 A3041 RMK A01 T00220021  RH  100%=      5-min Rain = 0
KMC1 080336Z 35008KT 02/02 A3041 RMK A01 T00220022  RH  100%=      5-min Rain = 0
KMC1 080337Z 36007G12KT 02/02 A3041 RMK A01 T00220022  RH  100%=      5-min Rain = 0
KMC1 080338Z 36008KT 02/02 A3041 RMK A01 T00220022  RH  100%=      5-min Rain = 0
KMC1 080339Z 00008KT 02/02 A3041 RMK A01 T00220022  RH  100%=      5-min Rain = 0
KMC1 080340Z 35010KT 02/02 A3041 RMK A01 T00220021  RH  100%=      5-min Rain = 0
KMC1 080341Z 36008KT 02/02 A3041 RMK A01 T00220021  RH  100%=      5-min Rain = 0
KMC1 080342Z 35010KT 02/02 A3041 RMK A01 T00220022  RH  100%=      5-min Rain = 0
KMC1 080343Z 35009KT 02/02 A3041 RMK A01 T00220021  RH  100%=      5-min Rain = 0
KMC1 080344Z 36008KT 02/02 A3041 RMK A01 T00220022  RH  100%=      5-min Rain = 0
KMC1 080345Z 36009KT 02/02 A3041 RMK A01 T00220022  RH  100%=      5-min Rain = 0
KMC1 080346Z 35006KT 02/02 A3041 RMK A01 T00220022  RH  100%=      5-min Rain = 0
KMC1 080347Z 36009KT 02/02 A3041 RMK A01 T00220022  RH  100%=      5-min Rain = 0
KMC1 080348Z 00012KT 02/02 A3041 RMK A01 T00220022  RH  100%=      5-min Rain = 0
KMC1 080349Z 36009KT 02/02 A3041 RMK A01 T00210021  RH  100%=      5-min Rain = 0
KMC1 080350Z 36009KT 02/02 A3041 RMK A01 T00220022  RH  100%=      5-min Rain = 0
KMC1 080351Z 36008KT 02/02 A3041 RMK A01 T00220022  RH  100%=      5-min Rain = 0
KMC1 080352Z 01008KT 02/02 A3041 RMK A01 T00220022  RH  100%=      5-min Rain = 0
KMC1 080353Z 35007KT 02/02 A3041 RMK A01 T00220021  RH  100%=      5-min Rain = 0
KMC1 080354Z 35007KT 02/02 A3041 RMK A01 T00220022  RH  100%=      5-min Rain = 0
KMC1 080355Z 34007KT 02/02 A3041 RMK A01 T00220022  RH  100%=      5-min Rain = 0
KMC1 080356Z 34008KT 02/02 A3041 RMK A01 T00220022  RH  100%=      5-min Rain = 0
KMC1 080357Z 33007KT 02/02 A3041 RMK A01 T00220022  RH  100%=      5-min Rain = 0
KMC1 080358Z 33008KT 02/02 A3041 RMK A01 T00220022  RH  100%=      5-min Rain = 0
KMC1 080359Z 34009KT 02/02 A3041 RMK A01 T00220022  RH  100%=      5-min Rain = 0
KMC1 080400Z 35008KT 02/02 A3042 RMK A01 T00220022  RH  100%=      5-min Rain = 0
KMC1 080401Z 35008KT 02/02 A3042 RMK A01 T00220022  RH  100%=      5-min Rain = 0
KMC1 080402Z 35010KT 02/02 A3041 RMK A01 T00220022  RH  100%=      5-min Rain = 0
KMC1 080403Z 35010KT 02/02 A3041 RMK A01 T00220022  RH  100%=      5-min Rain = 0
KMC1 080404Z 35013G19KT 02/02 A3041 RMK A01 T00220022  RH  100%=      5-min Rain = 0
KMC1 080405Z 34011KT 02/02 A3041 RMK A01 T00210021  RH  100%=      5-min Rain = 0
KMC1 080406Z 35009KT 02/02 A3041 RMK A01 T00210021  RH  100%=      5-min Rain = 0
KMC1 080407Z 34008KT 02/02 A3041 RMK A01 T00210021  RH  100%=      5-min Rain = 0
KMC1 080408Z 35010KT 02/02 A3041 RMK A01 T00210021  RH  100%=      5-min Rain = 0
KMC1 080409Z 35008KT 02/02 A3041 RMK A01 T00210021  RH  100%=      5-min Rain = 0
KMC1 080410Z 34010KT 02/02 A3042 RMK A01 T00210021  RH  100%=      5-min Rain = 0
KMC1 080411Z 35009KT 02/02 A3042 RMK A01 T00210021  RH  100%=      5-min Rain = 0
KMC1 080412Z 35007KT 02/02 A3042 RMK A01 T00210021  RH  100%=      5-min Rain = 0
KMC1 080413Z 35007KT 02/02 A3042 RMK A01 T00210021  RH  100%=      5-min Rain = 0
KMC1 080414Z 35008KT 02/02 A3042 RMK A01 T00220022  RH  100%=      5-min Rain = 0
KMC1 080415Z 35012KT 02/02 A3042 RMK A01 T00220021  RH  100%=      5-min Rain = 0
KMC1 080416Z 35011KT 02/02 A3042 RMK A01 T00220021  RH  100%=      5-min Rain = 0
KMC1 080417Z 34011KT 02/02 A3042 RMK A01 T00220021  RH  100%=      5-min Rain = 0
KMC1 080418Z 35008KT 02/02 A3042 RMK A01 T00210021  RH  100%=      5-min Rain = 0
KMC1 080419Z 34009KT 02/02 A3042 RMK A01 T00210021  RH  100%=      5-min Rain = 0
KMC1 080420Z 35008KT 02/02 A3042 RMK A01 T00210021  RH  100%=      5-min Rain = 0
KMC1 080421Z 35009KT 02/02 A3042 RMK A01 T00220022  RH  100%=      5-min Rain = 0
KMC1 080422Z 34009KT 02/02 A3042 RMK A01 T00220022  RH  100%=      5-min Rain = 0
KMC1 080423Z 33009KT 02/02 A3042 RMK A01 T00220022  RH  100%=      5-min Rain = 0
KMC1 080424Z 33009KT 02/02 A3042 RMK A01 T00220022  RH  100%=      5-min Rain = 0
KMC1 080425Z 33009KT 02/02 A3042 RMK A01 T00220022  RH  100%=      5-min Rain = 0
KMC1 080426Z 34010KT 02/02 A3042 RMK A01 T00220022  RH  100%=      5-min Rain = 0
KMC1 080427Z 35010KT 02/02 A3042 RMK A01 T00220022  RH  100%=      5-min Rain = 0
KMC1 080428Z 35010KT 02/02 A3042 RMK A01 T00220022  RH  100%=      5-min Rain = 0
KMC1 080429Z 35010KT 02/02 A3042 RMK A01 T00220022  RH  100%=      5-min Rain = 0
KMC1 080430Z 34008KT 02/02 A3042 RMK A01 T00220022  RH  100%=      5-min Rain = 0
KMC1 080431Z 34008KT 02/02 A3042 RMK A01 T00210021  RH  100%=      5-min Rain = 0
KMC1 080432Z 36009KT 02/02 A3042 RMK A01 T00220022  RH  100%=      5-min Rain = 0
KMC1 080433Z 34009KT 02/02 A3042 RMK A01 T00220022  RH  100%=      5-min Rain = 0
KMC1 080434Z 35008KT 02/02 A3042 RMK A01 T00220022  RH  100%=      5-min Rain = 0
KMC1 080435Z 35011KT 02/02 A3042 RMK A01 T00230023  RH  100%=      5-min Rain = 0
KMC1 080436Z 35010KT 02/02 A3042 RMK A01 T00230022  RH  100%=      5-min Rain = 0
KMC1 080437Z 35008KT 02/02 A3042 RMK A01 T00230022  RH  100%=      5-min Rain = 0
KMC1 080438Z 35008KT 02/02 A3042 RMK A01 T00220022  RH  100%=      5-min Rain = 0
KMC1 080439Z 36009KT 02/02 A3042 RMK A01 T00230022  RH  100%=      5-min Rain = 0
KMC1 080440Z 35007KT 02/02 A3042 RMK A01 T00230023  RH  100%=      5-min Rain = 0
KMC1 080441Z 35007KT 02/02 A3042 RMK A01 T00230023  RH  100%=      5-min Rain = 0
KMC1 080442Z 35007KT 02/02 A3042 RMK A01 T00230023  RH  100%=      5-min Rain = 0
KMC1 080443Z 36007KT 02/02 A3042 RMK A01 T00230023  RH  100%=      5-min Rain = 0
KMC1 080444Z 35008KT 02/02 A3042 RMK A01 T00230023  RH  100%=      5-min Rain = 0
KMC1 080445Z 35009KT 02/02 A3042 RMK A01 T00230023  RH  100%=      5-min Rain = 0
KMC1 080446Z 34012KT 02/02 A3042 RMK A01 T00230023  RH  100%=      5-min Rain = 0
KMC1 080447Z 35010KT 02/02 A3042 RMK A01 T00230023  RH  100%=      5-min Rain = 0
KMC1 080448Z 35010KT 02/02 A3042 RMK A01 T00230023  RH  100%=      5-min Rain = 0
KMC1 080449Z 35008KT 02/02 A3042 RMK A01 T00230023  RH  100%=      5-min Rain = 0
KMC1 080450Z 34007KT 02/02 A3042 RMK A01 T00230023  RH  100%=      5-min Rain = 0
KMC1 080451Z 34007KT 02/02 A3042 RMK A01 T00230023  RH  100%=      5-min Rain = 0
KMC1 080452Z 34007KT 02/02 A3042 RMK A01 T00230023  RH  100%=      5-min Rain = 0
KMC1 080453Z 00009KT 02/02 A3042 RMK A01 T00230023  RH  100%=      5-min Rain = 0
KMC1 080454Z 00009KT 02/02 A3042 RMK A01 T00240023  RH  100%=      5-min Rain = 0
KMC1 080455Z 36009KT 02/02 A3042 RMK A01 T00230023  RH  100%=      5-min Rain = 0
KMC1 080456Z 35009KT 02/02 A3042 RMK A01 T00230023  RH  100%=      5-min Rain = 0
KMC1 080457Z 36008KT 02/02 A3042 RMK A01 T00230023  RH  100%=      5-min Rain = 0
KMC1 080458Z 35008KT 02/02 A3042 RMK A01 T00230023  RH  100%=      5-min Rain = 0
KMC1 080459Z 35009KT 02/02 A3042 RMK A01 T00230023  RH  100%=      5-min Rain = 0
KMC1 080500Z 35008KT 02/02 A3042 RMK A01 T00240023  RH  100%=      5-min Rain = 0
KMC1 080501Z 35007KT 02/02 A3042 RMK A01 T00230023  RH  100%=      5-min Rain = 0
KMC1 080502Z 34006KT 02/02 A3042 RMK A01 T00240024  RH  100%=      5-min Rain = 0
KMC1 080503Z 34006KT 02/02 A3042 RMK A01 T00240024  RH  100%=      5-min Rain = 0
KMC1 080504Z 34005KT 02/02 A3042 RMK A01 T00240024  RH  100%=      5-min Rain = 0
KMC1 080505Z 34005KT 02/02 A3042 RMK A01 T00240024  RH  100%=      5-min Rain = 0
KMC1 080506Z 35008KT 02/02 A3042 RMK A01 T00240024  RH  100%=      5-min Rain = 0
KMC1 080507Z 35008KT 02/02 A3042 RMK A01 T00240024  RH  100%=      5-min Rain = 0
KMC1 080508Z 35006KT 02/02 A3042 RMK A01 T00240024  RH  100%=      5-min Rain = 0
KMC1 080509Z 36007KT 02/02 A3042 RMK A01 T00240024  RH  100%=      5-min Rain = 0
KMC1 080510Z 35008KT 02/02 A3042 RMK A01 T00240024  RH  100%=      5-min Rain = 0
KMC1 080511Z 35007KT 02/02 A3042 RMK A01 T00240024  RH  100%=      5-min Rain = 0
KMC1 080512Z 34009KT 02/02 A3042 RMK A01 T00240024  RH  100%=      5-min Rain = 0
KMC1 080513Z 34007KT 02/02 A3042 RMK A01 T00240024  RH  100%=      5-min Rain = 0
KMC1 080514Z 34007KT 02/02 A3042 RMK A01 T00240023  RH  100%=      5-min Rain = 0
KMC1 080515Z 35012KT 02/02 A3041 RMK A01 T00230023  RH  100%=      5-min Rain = 0
KMC1 080516Z 34008G14KT 02/02 A3041 RMK A01 T00230023  RH  100%=      5-min Rain = 0
KMC1 080517Z 34008KT 02/02 A3041 RMK A01 T00230023  RH  100%=      5-min Rain = 0
KMC1 080518Z 34010KT 02/02 A3041 RMK A01 T00230023  RH  100%=      5-min Rain = 0
KMC1 080519Z 34009KT 02/02 A3041 RMK A01 T00230023  RH  100%=      5-min Rain = 0
KMC1 080520Z 33009KT 02/02 A3042 RMK A01 T00230023  RH  100%=      5-min Rain = 0
KMC1 080521Z 34009KT 02/02 A3042 RMK A01 T00230023  RH  100%=      5-min Rain = 0
KMC1 080522Z 34008KT 02/02 A3042 RMK A01 T00230022  RH  100%=      5-min Rain = 0
KMC1 080523Z 34010KT 02/02 A3042 RMK A01 T00230022  RH  100%=      5-min Rain = 0
KMC1 080524Z 34009KT 02/02 A3042 RMK A01 T00220022  RH  100%=      5-min Rain = 0
KMC1 080525Z 33006KT 02/02 A3042 RMK A01 T00220022  RH  100%=      5-min Rain = 0
KMC1 080526Z 34006KT 02/02 A3042 RMK A01 T00220022  RH  100%=      5-min Rain = 0
KMC1 080527Z 34005KT 02/02 A3042 RMK A01 T00220022  RH  100%=      5-min Rain = 0
KMC1 080528Z 33008KT 02/02 A3042 RMK A01 T00220022  RH  100%=      5-min Rain = 0
KMC1 080529Z 34008KT 02/02 A3042 RMK A01 T00220022  RH  100%=      5-min Rain = 0
KMC1 080530Z 34006KT 02/02 A3042 RMK A01 T00220022  RH  100%=      5-min Rain = 0
KMC1 080531Z 32007KT 02/02 A3042 RMK A01 T00220022  RH  100%=      5-min Rain = 0
KMC1 080532Z 33008KT 02/02 A3042 RMK A01 T00220022  RH  100%=      5-min Rain = 0
KMC1 080533Z 33007KT 02/02 A3042 RMK A01 T00220022  RH  100%=      5-min Rain = 0
KMC1 080534Z 34007KT 02/02 A3042 RMK A01 T00220022  RH  100%=      5-min Rain = 0
KMC1 080535Z 33008KT 02/02 A3042 RMK A01 T00220022  RH  100%=      5-min Rain = 0
KMC1 080536Z 33009KT 02/02 A3042 RMK A01 T00220022  RH  100%=      5-min Rain = 0
KMC1 080537Z 34007KT 02/02 A3042 RMK A01 T00210021  RH  100%=      5-min Rain = 0
KMC1 080538Z 33009KT 02/02 A3042 RMK A01 T00210021  RH  100%=      5-min Rain = 0
KMC1 080539Z 34008KT 02/02 A3042 RMK A01 T00210021  RH  100%=      5-min Rain = 0
KMC1 080540Z 34008KT 02/02 A3042 RMK A01 T00210021  RH  100%=      5-min Rain = 0
KMC1 080541Z 34008KT 02/02 A3042 RMK A01 T00210021  RH  100%=      5-min Rain = 0
KMC1 080542Z 34005KT 02/02 A3042 RMK A01 T00210021  RH  100%=      5-min Rain = 0
KMC1 080543Z 34007KT 02/02 A3042 RMK A01 T00210021  RH  100%=      5-min Rain = 0
KMC1 080544Z 35006KT 02/02 A3042 RMK A01 T00210021  RH  100%=      5-min Rain = 0
KMC1 080545Z 35007G13KT 02/02 A3041 RMK A01 T00220022  RH  100%=      5-min Rain = 0
KMC1 080546Z 36010KT 02/02 A3041 RMK A01 T00220022  RH  100%=      5-min Rain = 0
KMC1 080547Z 34009KT 02/02 A3042 RMK A01 T00220022  RH  100%=      5-min Rain = 0
KMC1 080548Z 33006KT 02/02 A3042 RMK A01 T00220022  RH  100%=      5-min Rain = 0
KMC1 080549Z 34007KT 02/02 A3042 RMK A01 T00220022  RH  100%=      5-min Rain = 0
KMC1 080550Z 34009KT 02/02 A3042 RMK A01 T00220022  RH  100%=      5-min Rain = 0
KMC1 080551Z 33010KT 02/02 A3042 RMK A01 T00220022  RH  100%=      5-min Rain = 0
KMC1 080552Z 34008KT 02/02 A3042 RMK A01 T00220022  RH  100%=      5-min Rain = 0
KMC1 080553Z 32007KT 02/02 A3042 RMK A01 T00220022  RH  100%=      5-min Rain = 0
KMC1 080554Z 34008KT 02/02 A3042 RMK A01 T00220022  RH  100%=      5-min Rain = 0
KMC1 080555Z 34009KT 02/02 A3042 RMK A01 T00220022  RH  100%=      5-min Rain = 0
KMC1 080556Z 34008KT 02/02 A3042 RMK A01 T00220021  RH  100%=      5-min Rain = 0
KMC1 080557Z 34008KT 02/02 A3042 RMK A01 T00220021  RH  100%=      5-min Rain = 0
KMC1 080558Z 33007KT 02/02 A3042 RMK A01 T00220022  RH  100%=      5-min Rain = 0
KMC1 080559Z 35007KT 02/02 A3042 RMK A01 T00220021  RH  100%=      5-min Rain = 0

Page generated in 0.0712 seconds.